<?xml version="1.0" encoding="UTF-8" standalone="no" ?>
<gpx xmlns="http://www.topografix.com/GPX/1/1" xmlns:xsi="http://www.w3.org/2001/XMLSchema-instance" xsi:schemaLocation="http://www.topografix.com/GPX/1/1 http://www.topografix.com/GPX/1/1/gpx.xsd" version="1.1" creator="VisuGPX - https://www.visugpx.com">
  <metadata>
    <name>MA-Rando-2020-05-21-175100</name>
    <desc><![CDATA[[b][i][url][img][/img][/url][/i][/b]]]></desc>
  </metadata>
  <trk>
    <name><![CDATA[MA-Rando-2020-05-21-175100]]></name>
    <trkseg>
      <trkpt lat="42.71731" lon="1.48803">
        <ele>1144</ele>
        <time>2020-05-21T11:04:40Z</time>
      </trkpt>
      <trkpt lat="42.71719" lon="1.48803">
        <ele>1143</ele>
        <time>2020-05-21T11:04:48Z</time>
      </trkpt>
      <trkpt lat="42.71709" lon="1.48797">
        <ele>1142</ele>
        <time>2020-05-21T11:05:13Z</time>
      </trkpt>
      <trkpt lat="42.71698" lon="1.48799">
        <ele>1123</ele>
        <time>2020-05-21T11:05:16Z</time>
      </trkpt>
      <trkpt lat="42.71707" lon="1.48803">
        <ele>1120</ele>
        <time>2020-05-21T11:05:54Z</time>
      </trkpt>
      <trkpt lat="42.71703" lon="1.48819">
        <ele>1121</ele>
        <time>2020-05-21T11:06:08Z</time>
      </trkpt>
      <trkpt lat="42.71694" lon="1.48822">
        <ele>1123</ele>
        <time>2020-05-21T11:06:13Z</time>
      </trkpt>
      <trkpt lat="42.71684" lon="1.48827">
        <ele>1122</ele>
        <time>2020-05-21T11:06:21Z</time>
      </trkpt>
      <trkpt lat="42.71674" lon="1.48827">
        <ele>1121</ele>
        <time>2020-05-21T11:06:39Z</time>
      </trkpt>
      <trkpt lat="42.71663" lon="1.48829">
        <ele>1120</ele>
        <time>2020-05-21T11:06:44Z</time>
      </trkpt>
      <trkpt lat="42.71657" lon="1.48839">
        <ele>1121</ele>
        <time>2020-05-21T11:06:53Z</time>
      </trkpt>
      <trkpt lat="42.71653" lon="1.4885">
        <ele>1123</ele>
        <time>2020-05-21T11:07:06Z</time>
      </trkpt>
      <trkpt lat="42.71645" lon="1.48858">
        <ele>1120</ele>
        <time>2020-05-21T11:07:13Z</time>
      </trkpt>
      <trkpt lat="42.71635" lon="1.48862">
        <ele>1120</ele>
        <time>2020-05-21T11:07:22Z</time>
      </trkpt>
      <trkpt lat="42.71624" lon="1.48868">
        <ele>1123</ele>
        <time>2020-05-21T11:07:31Z</time>
      </trkpt>
      <trkpt lat="42.71613" lon="1.48867">
        <ele>1122</ele>
        <time>2020-05-21T11:07:37Z</time>
      </trkpt>
      <trkpt lat="42.71606" lon="1.48877">
        <ele>1129</ele>
        <time>2020-05-21T11:08:07Z</time>
      </trkpt>
      <trkpt lat="42.71595" lon="1.48883">
        <ele>1130</ele>
        <time>2020-05-21T11:08:13Z</time>
      </trkpt>
      <trkpt lat="42.71584" lon="1.48885">
        <ele>1127</ele>
        <time>2020-05-21T11:08:17Z</time>
      </trkpt>
      <trkpt lat="42.71574" lon="1.4889">
        <ele>1130</ele>
        <time>2020-05-21T11:08:23Z</time>
      </trkpt>
      <trkpt lat="42.71565" lon="1.48896">
        <ele>1131</ele>
        <time>2020-05-21T11:08:32Z</time>
      </trkpt>
      <trkpt lat="42.71556" lon="1.48898">
        <ele>1135</ele>
        <time>2020-05-21T11:08:47Z</time>
      </trkpt>
      <trkpt lat="42.71546" lon="1.48897">
        <ele>1134</ele>
        <time>2020-05-21T11:08:54Z</time>
      </trkpt>
      <trkpt lat="42.71537" lon="1.48903">
        <ele>1132</ele>
        <time>2020-05-21T11:09:00Z</time>
      </trkpt>
      <trkpt lat="42.71527" lon="1.48905">
        <ele>1131</ele>
        <time>2020-05-21T11:09:06Z</time>
      </trkpt>
      <trkpt lat="42.71526" lon="1.48918">
        <ele>1136</ele>
        <time>2020-05-21T11:09:25Z</time>
      </trkpt>
      <trkpt lat="42.71515" lon="1.48924">
        <ele>1141</ele>
        <time>2020-05-21T11:09:46Z</time>
      </trkpt>
      <trkpt lat="42.71505" lon="1.4892">
        <ele>1152</ele>
        <time>2020-05-21T11:09:53Z</time>
      </trkpt>
      <trkpt lat="42.71495" lon="1.48915">
        <ele>1158</ele>
        <time>2020-05-21T11:10:00Z</time>
      </trkpt>
      <trkpt lat="42.71487" lon="1.48907">
        <ele>1180</ele>
        <time>2020-05-21T11:10:15Z</time>
      </trkpt>
      <trkpt lat="42.71474" lon="1.48909">
        <ele>1181</ele>
        <time>2020-05-21T11:10:22Z</time>
      </trkpt>
      <trkpt lat="42.71466" lon="1.48916">
        <ele>1185</ele>
        <time>2020-05-21T11:10:32Z</time>
      </trkpt>
      <trkpt lat="42.71457" lon="1.48924">
        <ele>1188</ele>
        <time>2020-05-21T11:10:40Z</time>
      </trkpt>
      <trkpt lat="42.71448" lon="1.48928">
        <ele>1194</ele>
        <time>2020-05-21T11:10:50Z</time>
      </trkpt>
      <trkpt lat="42.71441" lon="1.48944">
        <ele>1198</ele>
        <time>2020-05-21T11:11:03Z</time>
      </trkpt>
      <trkpt lat="42.7143" lon="1.48952">
        <ele>1195</ele>
        <time>2020-05-21T11:11:10Z</time>
      </trkpt>
      <trkpt lat="42.7142" lon="1.48955">
        <ele>1194</ele>
        <time>2020-05-21T11:11:17Z</time>
      </trkpt>
      <trkpt lat="42.71412" lon="1.48963">
        <ele>1198</ele>
        <time>2020-05-21T11:11:32Z</time>
      </trkpt>
      <trkpt lat="42.71403" lon="1.48967">
        <ele>1197</ele>
        <time>2020-05-21T11:11:41Z</time>
      </trkpt>
      <trkpt lat="42.71393" lon="1.48972">
        <ele>1203</ele>
        <time>2020-05-21T11:11:54Z</time>
      </trkpt>
      <trkpt lat="42.71384" lon="1.48979">
        <ele>1202</ele>
        <time>2020-05-21T11:12:00Z</time>
      </trkpt>
      <trkpt lat="42.71377" lon="1.48989">
        <ele>1204</ele>
        <time>2020-05-21T11:12:15Z</time>
      </trkpt>
      <trkpt lat="42.71368" lon="1.48989">
        <ele>1207</ele>
        <time>2020-05-21T11:12:32Z</time>
      </trkpt>
      <trkpt lat="42.71359" lon="1.48988">
        <ele>1211</ele>
        <time>2020-05-21T11:13:02Z</time>
      </trkpt>
      <trkpt lat="42.71347" lon="1.48992">
        <ele>1207</ele>
        <time>2020-05-21T11:13:06Z</time>
      </trkpt>
      <trkpt lat="42.71336" lon="1.48995">
        <ele>1212</ele>
        <time>2020-05-21T11:13:11Z</time>
      </trkpt>
      <trkpt lat="42.71325" lon="1.48999">
        <ele>1210</ele>
        <time>2020-05-21T11:13:17Z</time>
      </trkpt>
      <trkpt lat="42.71314" lon="1.49005">
        <ele>1212</ele>
        <time>2020-05-21T11:13:25Z</time>
      </trkpt>
      <trkpt lat="42.7131" lon="1.49017">
        <ele>1216</ele>
        <time>2020-05-21T11:13:35Z</time>
      </trkpt>
      <trkpt lat="42.71301" lon="1.4902">
        <ele>1217</ele>
        <time>2020-05-21T11:13:49Z</time>
      </trkpt>
      <trkpt lat="42.71289" lon="1.4902">
        <ele>1215</ele>
        <time>2020-05-21T11:13:56Z</time>
      </trkpt>
      <trkpt lat="42.71281" lon="1.49032">
        <ele>1216</ele>
        <time>2020-05-21T11:14:11Z</time>
      </trkpt>
      <trkpt lat="42.71272" lon="1.4904">
        <ele>1214</ele>
        <time>2020-05-21T11:14:17Z</time>
      </trkpt>
      <trkpt lat="42.71269" lon="1.49054">
        <ele>1212</ele>
        <time>2020-05-21T11:14:26Z</time>
      </trkpt>
      <trkpt lat="42.71266" lon="1.49067">
        <ele>1212</ele>
        <time>2020-05-21T11:14:39Z</time>
      </trkpt>
      <trkpt lat="42.71274" lon="1.49074">
        <ele>1214</ele>
        <time>2020-05-21T11:14:45Z</time>
      </trkpt>
      <trkpt lat="42.7128" lon="1.49084">
        <ele>1214</ele>
        <time>2020-05-21T11:14:59Z</time>
      </trkpt>
      <trkpt lat="42.7129" lon="1.49091">
        <ele>1214</ele>
        <time>2020-05-21T11:15:11Z</time>
      </trkpt>
      <trkpt lat="42.71301" lon="1.49087">
        <ele>1213</ele>
        <time>2020-05-21T11:15:18Z</time>
      </trkpt>
      <trkpt lat="42.7131" lon="1.49093">
        <ele>1213</ele>
        <time>2020-05-21T11:15:34Z</time>
      </trkpt>
      <trkpt lat="42.7132" lon="1.49094">
        <ele>1211</ele>
        <time>2020-05-21T11:15:38Z</time>
      </trkpt>
      <trkpt lat="42.71312" lon="1.49101">
        <ele>1219</ele>
        <time>2020-05-21T11:15:55Z</time>
      </trkpt>
      <trkpt lat="42.71309" lon="1.49118">
        <ele>1222</ele>
        <time>2020-05-21T11:16:18Z</time>
      </trkpt>
      <trkpt lat="42.71305" lon="1.4913">
        <ele>1229</ele>
        <time>2020-05-21T11:16:48Z</time>
      </trkpt>
      <trkpt lat="42.71299" lon="1.49141">
        <ele>1229</ele>
        <time>2020-05-21T11:17:08Z</time>
      </trkpt>
      <trkpt lat="42.71293" lon="1.49152">
        <ele>1234</ele>
        <time>2020-05-21T11:17:20Z</time>
      </trkpt>
      <trkpt lat="42.71286" lon="1.49163">
        <ele>1235</ele>
        <time>2020-05-21T11:17:34Z</time>
      </trkpt>
      <trkpt lat="42.71282" lon="1.49175">
        <ele>1240</ele>
        <time>2020-05-21T11:17:48Z</time>
      </trkpt>
      <trkpt lat="42.71274" lon="1.49182">
        <ele>1244</ele>
        <time>2020-05-21T11:18:01Z</time>
      </trkpt>
      <trkpt lat="42.71269" lon="1.49192">
        <ele>1245</ele>
        <time>2020-05-21T11:18:14Z</time>
      </trkpt>
      <trkpt lat="42.71261" lon="1.49199">
        <ele>1241</ele>
        <time>2020-05-21T11:18:25Z</time>
      </trkpt>
      <trkpt lat="42.71254" lon="1.49208">
        <ele>1247</ele>
        <time>2020-05-21T11:18:40Z</time>
      </trkpt>
      <trkpt lat="42.71249" lon="1.49226">
        <ele>1243</ele>
        <time>2020-05-21T11:18:58Z</time>
      </trkpt>
      <trkpt lat="42.7124" lon="1.49232">
        <ele>1252</ele>
        <time>2020-05-21T11:19:24Z</time>
      </trkpt>
      <trkpt lat="42.71233" lon="1.49242">
        <ele>1253</ele>
        <time>2020-05-21T11:19:30Z</time>
      </trkpt>
      <trkpt lat="42.71222" lon="1.49239">
        <ele>1252</ele>
        <time>2020-05-21T11:19:37Z</time>
      </trkpt>
      <trkpt lat="42.71216" lon="1.49254">
        <ele>1248</ele>
        <time>2020-05-21T11:19:49Z</time>
      </trkpt>
      <trkpt lat="42.71205" lon="1.49256">
        <ele>1247</ele>
        <time>2020-05-21T11:19:58Z</time>
      </trkpt>
      <trkpt lat="42.71196" lon="1.49264">
        <ele>1246</ele>
        <time>2020-05-21T11:20:12Z</time>
      </trkpt>
      <trkpt lat="42.71187" lon="1.49266">
        <ele>1250</ele>
        <time>2020-05-21T11:20:26Z</time>
      </trkpt>
      <trkpt lat="42.7118" lon="1.49274">
        <ele>1258</ele>
        <time>2020-05-21T11:20:55Z</time>
      </trkpt>
      <trkpt lat="42.7117" lon="1.49275">
        <ele>1262</ele>
        <time>2020-05-21T11:21:07Z</time>
      </trkpt>
      <trkpt lat="42.7116" lon="1.49284">
        <ele>1262</ele>
        <time>2020-05-21T11:21:27Z</time>
      </trkpt>
      <trkpt lat="42.71151" lon="1.49289">
        <ele>1259</ele>
        <time>2020-05-21T11:21:38Z</time>
      </trkpt>
      <trkpt lat="42.71141" lon="1.49285">
        <ele>1258</ele>
        <time>2020-05-21T11:21:45Z</time>
      </trkpt>
      <trkpt lat="42.71141" lon="1.49297">
        <ele>1260</ele>
        <time>2020-05-21T11:21:51Z</time>
      </trkpt>
      <trkpt lat="42.71132" lon="1.49305">
        <ele>1268</ele>
        <time>2020-05-21T11:22:08Z</time>
      </trkpt>
      <trkpt lat="42.71122" lon="1.49314">
        <ele>1268</ele>
        <time>2020-05-21T11:22:20Z</time>
      </trkpt>
      <trkpt lat="42.71113" lon="1.49304">
        <ele>1273</ele>
        <time>2020-05-21T11:22:29Z</time>
      </trkpt>
      <trkpt lat="42.71106" lon="1.49313">
        <ele>1282</ele>
        <time>2020-05-21T11:22:54Z</time>
      </trkpt>
      <trkpt lat="42.71101" lon="1.49328">
        <ele>1275</ele>
        <time>2020-05-21T11:23:06Z</time>
      </trkpt>
      <trkpt lat="42.71089" lon="1.49333">
        <ele>1276</ele>
        <time>2020-05-21T11:23:27Z</time>
      </trkpt>
      <trkpt lat="42.71083" lon="1.49347">
        <ele>1287</ele>
        <time>2020-05-21T11:23:49Z</time>
      </trkpt>
      <trkpt lat="42.71072" lon="1.49342">
        <ele>1289</ele>
        <time>2020-05-21T11:23:58Z</time>
      </trkpt>
      <trkpt lat="42.71063" lon="1.49337">
        <ele>1293</ele>
        <time>2020-05-21T11:24:08Z</time>
      </trkpt>
      <trkpt lat="42.71055" lon="1.49346">
        <ele>1288</ele>
        <time>2020-05-21T11:24:18Z</time>
      </trkpt>
      <trkpt lat="42.71046" lon="1.49351">
        <ele>1291</ele>
        <time>2020-05-21T11:24:30Z</time>
      </trkpt>
      <trkpt lat="42.71038" lon="1.49361">
        <ele>1292</ele>
        <time>2020-05-21T11:24:44Z</time>
      </trkpt>
      <trkpt lat="42.7103" lon="1.49367">
        <ele>1297</ele>
        <time>2020-05-21T11:24:55Z</time>
      </trkpt>
      <trkpt lat="42.71024" lon="1.49376">
        <ele>1301</ele>
        <time>2020-05-21T11:25:09Z</time>
      </trkpt>
      <trkpt lat="42.71016" lon="1.49383">
        <ele>1304</ele>
        <time>2020-05-21T11:25:27Z</time>
      </trkpt>
      <trkpt lat="42.7101" lon="1.49395">
        <ele>1306</ele>
        <time>2020-05-21T11:25:59Z</time>
      </trkpt>
      <trkpt lat="42.71005" lon="1.49406">
        <ele>1309</ele>
        <time>2020-05-21T11:26:12Z</time>
      </trkpt>
      <trkpt lat="42.70996" lon="1.49406">
        <ele>1309</ele>
        <time>2020-05-21T11:26:21Z</time>
      </trkpt>
      <trkpt lat="42.70989" lon="1.49417">
        <ele>1309</ele>
        <time>2020-05-21T11:26:31Z</time>
      </trkpt>
      <trkpt lat="42.70981" lon="1.49423">
        <ele>1314</ele>
        <time>2020-05-21T11:26:46Z</time>
      </trkpt>
      <trkpt lat="42.70982" lon="1.49438">
        <ele>1309</ele>
        <time>2020-05-21T11:26:51Z</time>
      </trkpt>
      <trkpt lat="42.70972" lon="1.4944">
        <ele>1310</ele>
        <time>2020-05-21T11:26:59Z</time>
      </trkpt>
      <trkpt lat="42.70963" lon="1.4944">
        <ele>1309</ele>
        <time>2020-05-21T11:27:09Z</time>
      </trkpt>
      <trkpt lat="42.70953" lon="1.49439">
        <ele>1308</ele>
        <time>2020-05-21T11:27:17Z</time>
      </trkpt>
      <trkpt lat="42.70947" lon="1.49451">
        <ele>1311</ele>
        <time>2020-05-21T11:27:36Z</time>
      </trkpt>
      <trkpt lat="42.70936" lon="1.49463">
        <ele>1309</ele>
        <time>2020-05-21T11:27:57Z</time>
      </trkpt>
      <trkpt lat="42.70927" lon="1.49466">
        <ele>1311</ele>
        <time>2020-05-21T11:28:09Z</time>
      </trkpt>
      <trkpt lat="42.70916" lon="1.49463">
        <ele>1315</ele>
        <time>2020-05-21T11:28:24Z</time>
      </trkpt>
      <trkpt lat="42.70907" lon="1.4946">
        <ele>1317</ele>
        <time>2020-05-21T11:28:35Z</time>
      </trkpt>
      <trkpt lat="42.70899" lon="1.49453">
        <ele>1320</ele>
        <time>2020-05-21T11:28:51Z</time>
      </trkpt>
      <trkpt lat="42.7089" lon="1.49451">
        <ele>1319</ele>
        <time>2020-05-21T11:29:00Z</time>
      </trkpt>
      <trkpt lat="42.7088" lon="1.49449">
        <ele>1316</ele>
        <time>2020-05-21T11:29:14Z</time>
      </trkpt>
      <trkpt lat="42.70871" lon="1.49452">
        <ele>1318</ele>
        <time>2020-05-21T11:29:38Z</time>
      </trkpt>
      <trkpt lat="42.70867" lon="1.49463">
        <ele>1337</ele>
        <time>2020-05-21T11:30:34Z</time>
      </trkpt>
      <trkpt lat="42.70857" lon="1.49463">
        <ele>1344</ele>
        <time>2020-05-21T11:30:48Z</time>
      </trkpt>
      <trkpt lat="42.70848" lon="1.49456">
        <ele>1344</ele>
        <time>2020-05-21T11:31:00Z</time>
      </trkpt>
      <trkpt lat="42.70838" lon="1.49455">
        <ele>1343</ele>
        <time>2020-05-21T11:31:09Z</time>
      </trkpt>
      <trkpt lat="42.70828" lon="1.49459">
        <ele>1344</ele>
        <time>2020-05-21T11:31:21Z</time>
      </trkpt>
      <trkpt lat="42.70819" lon="1.49462">
        <ele>1353</ele>
        <time>2020-05-21T11:31:59Z</time>
      </trkpt>
      <trkpt lat="42.70808" lon="1.49462">
        <ele>1351</ele>
        <time>2020-05-21T11:32:04Z</time>
      </trkpt>
      <trkpt lat="42.70799" lon="1.4946">
        <ele>1364</ele>
        <time>2020-05-21T11:32:16Z</time>
      </trkpt>
      <trkpt lat="42.70788" lon="1.49459">
        <ele>1361</ele>
        <time>2020-05-21T11:32:32Z</time>
      </trkpt>
      <trkpt lat="42.70779" lon="1.49459">
        <ele>1368</ele>
        <time>2020-05-21T11:34:27Z</time>
      </trkpt>
      <trkpt lat="42.7077" lon="1.49463">
        <ele>1370</ele>
        <time>2020-05-21T11:34:39Z</time>
      </trkpt>
      <trkpt lat="42.70761" lon="1.49467">
        <ele>1370</ele>
        <time>2020-05-21T11:34:50Z</time>
      </trkpt>
      <trkpt lat="42.70754" lon="1.49476">
        <ele>1370</ele>
        <time>2020-05-21T11:35:02Z</time>
      </trkpt>
      <trkpt lat="42.70745" lon="1.49482">
        <ele>1373</ele>
        <time>2020-05-21T11:35:17Z</time>
      </trkpt>
      <trkpt lat="42.70739" lon="1.49491">
        <ele>1376</ele>
        <time>2020-05-21T11:35:28Z</time>
      </trkpt>
      <trkpt lat="42.70729" lon="1.49493">
        <ele>1379</ele>
        <time>2020-05-21T11:35:42Z</time>
      </trkpt>
      <trkpt lat="42.7072" lon="1.49498">
        <ele>1378</ele>
        <time>2020-05-21T11:35:54Z</time>
      </trkpt>
      <trkpt lat="42.7071" lon="1.495">
        <ele>1375</ele>
        <time>2020-05-21T11:36:05Z</time>
      </trkpt>
      <trkpt lat="42.70705" lon="1.49511">
        <ele>1376</ele>
        <time>2020-05-21T11:36:12Z</time>
      </trkpt>
      <trkpt lat="42.70693" lon="1.49519">
        <ele>1377</ele>
        <time>2020-05-21T11:36:28Z</time>
      </trkpt>
      <trkpt lat="42.70685" lon="1.4952">
        <ele>1378</ele>
        <time>2020-05-21T11:36:40Z</time>
      </trkpt>
      <trkpt lat="42.7068" lon="1.49531">
        <ele>1388</ele>
        <time>2020-05-21T11:36:56Z</time>
      </trkpt>
      <trkpt lat="42.70672" lon="1.49539">
        <ele>1386</ele>
        <time>2020-05-21T11:37:11Z</time>
      </trkpt>
      <trkpt lat="42.70667" lon="1.49549">
        <ele>1389</ele>
        <time>2020-05-21T11:37:25Z</time>
      </trkpt>
      <trkpt lat="42.70658" lon="1.49554">
        <ele>1391</ele>
        <time>2020-05-21T11:37:43Z</time>
      </trkpt>
      <trkpt lat="42.7065" lon="1.49561">
        <ele>1395</ele>
        <time>2020-05-21T11:38:00Z</time>
      </trkpt>
      <trkpt lat="42.70643" lon="1.49569">
        <ele>1402</ele>
        <time>2020-05-21T11:38:21Z</time>
      </trkpt>
      <trkpt lat="42.70634" lon="1.4958">
        <ele>1408</ele>
        <time>2020-05-21T11:38:50Z</time>
      </trkpt>
      <trkpt lat="42.70629" lon="1.49591">
        <ele>1412</ele>
        <time>2020-05-21T11:39:04Z</time>
      </trkpt>
      <trkpt lat="42.70622" lon="1.49599">
        <ele>1414</ele>
        <time>2020-05-21T11:39:17Z</time>
      </trkpt>
      <trkpt lat="42.70613" lon="1.49602">
        <ele>1412</ele>
        <time>2020-05-21T11:39:33Z</time>
      </trkpt>
      <trkpt lat="42.70603" lon="1.49601">
        <ele>1414</ele>
        <time>2020-05-21T11:39:44Z</time>
      </trkpt>
      <trkpt lat="42.70593" lon="1.496">
        <ele>1419</ele>
        <time>2020-05-21T11:39:58Z</time>
      </trkpt>
      <trkpt lat="42.70585" lon="1.49607">
        <ele>1419</ele>
        <time>2020-05-21T11:40:07Z</time>
      </trkpt>
      <trkpt lat="42.70576" lon="1.49611">
        <ele>1420</ele>
        <time>2020-05-21T11:40:17Z</time>
      </trkpt>
      <trkpt lat="42.70567" lon="1.4961">
        <ele>1424</ele>
        <time>2020-05-21T11:40:31Z</time>
      </trkpt>
      <trkpt lat="42.70557" lon="1.49611">
        <ele>1425</ele>
        <time>2020-05-21T11:40:41Z</time>
      </trkpt>
      <trkpt lat="42.70548" lon="1.49616">
        <ele>1422</ele>
        <time>2020-05-21T11:40:53Z</time>
      </trkpt>
      <trkpt lat="42.70538" lon="1.49618">
        <ele>1425</ele>
        <time>2020-05-21T11:41:06Z</time>
      </trkpt>
      <trkpt lat="42.70529" lon="1.4962">
        <ele>1425</ele>
        <time>2020-05-21T11:41:18Z</time>
      </trkpt>
      <trkpt lat="42.70519" lon="1.49631">
        <ele>1428</ele>
        <time>2020-05-21T11:41:36Z</time>
      </trkpt>
      <trkpt lat="42.70508" lon="1.49639">
        <ele>1434</ele>
        <time>2020-05-21T11:41:59Z</time>
      </trkpt>
      <trkpt lat="42.70499" lon="1.4964">
        <ele>1437</ele>
        <time>2020-05-21T11:42:10Z</time>
      </trkpt>
      <trkpt lat="42.70491" lon="1.49647">
        <ele>1437</ele>
        <time>2020-05-21T11:42:20Z</time>
      </trkpt>
      <trkpt lat="42.70484" lon="1.49655">
        <ele>1439</ele>
        <time>2020-05-21T11:42:31Z</time>
      </trkpt>
      <trkpt lat="42.70476" lon="1.49662">
        <ele>1440</ele>
        <time>2020-05-21T11:42:46Z</time>
      </trkpt>
      <trkpt lat="42.7047" lon="1.49674">
        <ele>1445</ele>
        <time>2020-05-21T11:43:04Z</time>
      </trkpt>
      <trkpt lat="42.70462" lon="1.49682">
        <ele>1447</ele>
        <time>2020-05-21T11:43:27Z</time>
      </trkpt>
      <trkpt lat="42.70453" lon="1.49683">
        <ele>1449</ele>
        <time>2020-05-21T11:43:46Z</time>
      </trkpt>
      <trkpt lat="42.70445" lon="1.49689">
        <ele>1454</ele>
        <time>2020-05-21T11:44:04Z</time>
      </trkpt>
      <trkpt lat="42.70436" lon="1.49701">
        <ele>1458</ele>
        <time>2020-05-21T11:44:27Z</time>
      </trkpt>
      <trkpt lat="42.70428" lon="1.49695">
        <ele>1461</ele>
        <time>2020-05-21T11:44:40Z</time>
      </trkpt>
      <trkpt lat="42.70419" lon="1.49705">
        <ele>1463</ele>
        <time>2020-05-21T11:44:59Z</time>
      </trkpt>
      <trkpt lat="42.7041" lon="1.49707">
        <ele>1464</ele>
        <time>2020-05-21T11:45:17Z</time>
      </trkpt>
      <trkpt lat="42.704" lon="1.49707">
        <ele>1469</ele>
        <time>2020-05-21T11:49:06Z</time>
      </trkpt>
      <trkpt lat="42.70391" lon="1.49712">
        <ele>1471</ele>
        <time>2020-05-21T11:49:19Z</time>
      </trkpt>
      <trkpt lat="42.70384" lon="1.49721">
        <ele>1468</ele>
        <time>2020-05-21T11:49:30Z</time>
      </trkpt>
      <trkpt lat="42.70377" lon="1.49731">
        <ele>1472</ele>
        <time>2020-05-21T11:49:43Z</time>
      </trkpt>
      <trkpt lat="42.70369" lon="1.49738">
        <ele>1474</ele>
        <time>2020-05-21T11:49:58Z</time>
      </trkpt>
      <trkpt lat="42.7036" lon="1.49744">
        <ele>1477</ele>
        <time>2020-05-21T11:50:16Z</time>
      </trkpt>
      <trkpt lat="42.70348" lon="1.49747">
        <ele>1487</ele>
        <time>2020-05-21T11:50:42Z</time>
      </trkpt>
      <trkpt lat="42.70339" lon="1.49752">
        <ele>1490</ele>
        <time>2020-05-21T11:50:58Z</time>
      </trkpt>
      <trkpt lat="42.70326" lon="1.49757">
        <ele>1494</ele>
        <time>2020-05-21T11:51:25Z</time>
      </trkpt>
      <trkpt lat="42.70313" lon="1.49751">
        <ele>1499</ele>
        <time>2020-05-21T11:51:51Z</time>
      </trkpt>
      <trkpt lat="42.70304" lon="1.49748">
        <ele>1499</ele>
        <time>2020-05-21T11:52:02Z</time>
      </trkpt>
      <trkpt lat="42.70294" lon="1.49748">
        <ele>1500</ele>
        <time>2020-05-21T11:52:11Z</time>
      </trkpt>
      <trkpt lat="42.70284" lon="1.49752">
        <ele>1498</ele>
        <time>2020-05-21T11:52:25Z</time>
      </trkpt>
      <trkpt lat="42.70272" lon="1.49752">
        <ele>1507</ele>
        <time>2020-05-21T11:53:09Z</time>
      </trkpt>
      <trkpt lat="42.70262" lon="1.49752">
        <ele>1503</ele>
        <time>2020-05-21T11:53:33Z</time>
      </trkpt>
      <trkpt lat="42.70253" lon="1.49754">
        <ele>1507</ele>
        <time>2020-05-21T11:54:03Z</time>
      </trkpt>
      <trkpt lat="42.70244" lon="1.4976">
        <ele>1514</ele>
        <time>2020-05-21T11:54:47Z</time>
      </trkpt>
      <trkpt lat="42.70235" lon="1.49759">
        <ele>1525</ele>
        <time>2020-05-21T11:55:13Z</time>
      </trkpt>
      <trkpt lat="42.70222" lon="1.49755">
        <ele>1525</ele>
        <time>2020-05-21T11:55:39Z</time>
      </trkpt>
      <trkpt lat="42.70214" lon="1.49749">
        <ele>1526</ele>
        <time>2020-05-21T11:55:58Z</time>
      </trkpt>
      <trkpt lat="42.70204" lon="1.49746">
        <ele>1523</ele>
        <time>2020-05-21T11:56:25Z</time>
      </trkpt>
      <trkpt lat="42.70195" lon="1.49749">
        <ele>1526</ele>
        <time>2020-05-21T11:56:45Z</time>
      </trkpt>
      <trkpt lat="42.70187" lon="1.49742">
        <ele>1534</ele>
        <time>2020-05-21T11:57:48Z</time>
      </trkpt>
      <trkpt lat="42.70178" lon="1.49738">
        <ele>1533</ele>
        <time>2020-05-21T11:57:59Z</time>
      </trkpt>
      <trkpt lat="42.70171" lon="1.49729">
        <ele>1537</ele>
        <time>2020-05-21T11:58:12Z</time>
      </trkpt>
      <trkpt lat="42.70162" lon="1.49725">
        <ele>1536</ele>
        <time>2020-05-21T11:58:24Z</time>
      </trkpt>
      <trkpt lat="42.70152" lon="1.4972">
        <ele>1536</ele>
        <time>2020-05-21T11:58:35Z</time>
      </trkpt>
      <trkpt lat="42.70142" lon="1.4972">
        <ele>1539</ele>
        <time>2020-05-21T11:58:50Z</time>
      </trkpt>
      <trkpt lat="42.70132" lon="1.49718">
        <ele>1537</ele>
        <time>2020-05-21T11:59:00Z</time>
      </trkpt>
      <trkpt lat="42.70124" lon="1.49712">
        <ele>1535</ele>
        <time>2020-05-21T11:59:10Z</time>
      </trkpt>
      <trkpt lat="42.70114" lon="1.49708">
        <ele>1537</ele>
        <time>2020-05-21T11:59:19Z</time>
      </trkpt>
      <trkpt lat="42.70104" lon="1.49707">
        <ele>1536</ele>
        <time>2020-05-21T11:59:33Z</time>
      </trkpt>
      <trkpt lat="42.70095" lon="1.4971">
        <ele>1538</ele>
        <time>2020-05-21T11:59:45Z</time>
      </trkpt>
      <trkpt lat="42.70085" lon="1.49714">
        <ele>1539</ele>
        <time>2020-05-21T12:00:01Z</time>
      </trkpt>
      <trkpt lat="42.70075" lon="1.49711">
        <ele>1540</ele>
        <time>2020-05-21T12:00:11Z</time>
      </trkpt>
      <trkpt lat="42.70066" lon="1.49705">
        <ele>1542</ele>
        <time>2020-05-21T12:00:21Z</time>
      </trkpt>
      <trkpt lat="42.70056" lon="1.49704">
        <ele>1544</ele>
        <time>2020-05-21T12:00:37Z</time>
      </trkpt>
      <trkpt lat="42.70044" lon="1.49697">
        <ele>1548</ele>
        <time>2020-05-21T12:01:15Z</time>
      </trkpt>
      <trkpt lat="42.70035" lon="1.49693">
        <ele>1546</ele>
        <time>2020-05-21T12:01:29Z</time>
      </trkpt>
      <trkpt lat="42.70029" lon="1.49684">
        <ele>1550</ele>
        <time>2020-05-21T12:01:48Z</time>
      </trkpt>
      <trkpt lat="42.7002" lon="1.49681">
        <ele>1553</ele>
        <time>2020-05-21T12:02:03Z</time>
      </trkpt>
      <trkpt lat="42.7001" lon="1.49681">
        <ele>1554</ele>
        <time>2020-05-21T12:02:16Z</time>
      </trkpt>
      <trkpt lat="42.70001" lon="1.49682">
        <ele>1549</ele>
        <time>2020-05-21T12:02:29Z</time>
      </trkpt>
      <trkpt lat="42.69992" lon="1.49683">
        <ele>1549</ele>
        <time>2020-05-21T12:02:43Z</time>
      </trkpt>
      <trkpt lat="42.69984" lon="1.4969">
        <ele>1548</ele>
        <time>2020-05-21T12:02:52Z</time>
      </trkpt>
      <trkpt lat="42.69975" lon="1.49685">
        <ele>1551</ele>
        <time>2020-05-21T12:03:08Z</time>
      </trkpt>
      <trkpt lat="42.69967" lon="1.49678">
        <ele>1552</ele>
        <time>2020-05-21T12:03:22Z</time>
      </trkpt>
      <trkpt lat="42.69956" lon="1.49678">
        <ele>1551</ele>
        <time>2020-05-21T12:03:35Z</time>
      </trkpt>
      <trkpt lat="42.69949" lon="1.4967">
        <ele>1558</ele>
        <time>2020-05-21T12:05:43Z</time>
      </trkpt>
      <trkpt lat="42.69939" lon="1.49669">
        <ele>1560</ele>
        <time>2020-05-21T12:05:57Z</time>
      </trkpt>
      <trkpt lat="42.69928" lon="1.49668">
        <ele>1558</ele>
        <time>2020-05-21T12:06:05Z</time>
      </trkpt>
      <trkpt lat="42.69918" lon="1.49665">
        <ele>1563</ele>
        <time>2020-05-21T12:06:15Z</time>
      </trkpt>
      <trkpt lat="42.69907" lon="1.49663">
        <ele>1560</ele>
        <time>2020-05-21T12:06:24Z</time>
      </trkpt>
      <trkpt lat="42.69898" lon="1.49668">
        <ele>1560</ele>
        <time>2020-05-21T12:06:35Z</time>
      </trkpt>
      <trkpt lat="42.69889" lon="1.49672">
        <ele>1562</ele>
        <time>2020-05-21T12:06:45Z</time>
      </trkpt>
      <trkpt lat="42.6988" lon="1.49677">
        <ele>1566</ele>
        <time>2020-05-21T12:06:57Z</time>
      </trkpt>
      <trkpt lat="42.6987" lon="1.49675">
        <ele>1566</ele>
        <time>2020-05-21T12:07:09Z</time>
      </trkpt>
      <trkpt lat="42.69861" lon="1.49674">
        <ele>1570</ele>
        <time>2020-05-21T12:07:23Z</time>
      </trkpt>
      <trkpt lat="42.69851" lon="1.49675">
        <ele>1567</ele>
        <time>2020-05-21T12:07:38Z</time>
      </trkpt>
      <trkpt lat="42.69842" lon="1.49678">
        <ele>1566</ele>
        <time>2020-05-21T12:07:56Z</time>
      </trkpt>
      <trkpt lat="42.69834" lon="1.4967">
        <ele>1578</ele>
        <time>2020-05-21T12:08:37Z</time>
      </trkpt>
      <trkpt lat="42.69824" lon="1.49666">
        <ele>1586</ele>
        <time>2020-05-21T12:08:58Z</time>
      </trkpt>
      <trkpt lat="42.69815" lon="1.4966">
        <ele>1589</ele>
        <time>2020-05-21T12:09:14Z</time>
      </trkpt>
      <trkpt lat="42.69807" lon="1.49654">
        <ele>1589</ele>
        <time>2020-05-21T12:09:31Z</time>
      </trkpt>
      <trkpt lat="42.69797" lon="1.49654">
        <ele>1586</ele>
        <time>2020-05-21T12:09:44Z</time>
      </trkpt>
      <trkpt lat="42.69787" lon="1.4965">
        <ele>1582</ele>
        <time>2020-05-21T12:10:02Z</time>
      </trkpt>
      <trkpt lat="42.69778" lon="1.49653">
        <ele>1580</ele>
        <time>2020-05-21T12:10:15Z</time>
      </trkpt>
      <trkpt lat="42.69769" lon="1.49657">
        <ele>1579</ele>
        <time>2020-05-21T12:10:29Z</time>
      </trkpt>
      <trkpt lat="42.69759" lon="1.49657">
        <ele>1576</ele>
        <time>2020-05-21T12:10:39Z</time>
      </trkpt>
      <trkpt lat="42.6975" lon="1.49663">
        <ele>1585</ele>
        <time>2020-05-21T12:12:09Z</time>
      </trkpt>
      <trkpt lat="42.69742" lon="1.4967">
        <ele>1587</ele>
        <time>2020-05-21T12:12:38Z</time>
      </trkpt>
      <trkpt lat="42.69734" lon="1.49675">
        <ele>1587</ele>
        <time>2020-05-21T12:12:49Z</time>
      </trkpt>
      <trkpt lat="42.69726" lon="1.49682">
        <ele>1585</ele>
        <time>2020-05-21T12:13:03Z</time>
      </trkpt>
      <trkpt lat="42.69716" lon="1.49689">
        <ele>1589</ele>
        <time>2020-05-21T12:13:14Z</time>
      </trkpt>
      <trkpt lat="42.69707" lon="1.49697">
        <ele>1587</ele>
        <time>2020-05-21T12:13:21Z</time>
      </trkpt>
      <trkpt lat="42.69699" lon="1.49704">
        <ele>1585</ele>
        <time>2020-05-21T12:13:29Z</time>
      </trkpt>
      <trkpt lat="42.69691" lon="1.49711">
        <ele>1587</ele>
        <time>2020-05-21T12:13:40Z</time>
      </trkpt>
      <trkpt lat="42.69682" lon="1.49715">
        <ele>1592</ele>
        <time>2020-05-21T12:13:55Z</time>
      </trkpt>
      <trkpt lat="42.69671" lon="1.49717">
        <ele>1594</ele>
        <time>2020-05-21T12:14:07Z</time>
      </trkpt>
      <trkpt lat="42.69663" lon="1.49724">
        <ele>1592</ele>
        <time>2020-05-21T12:14:17Z</time>
      </trkpt>
      <trkpt lat="42.69654" lon="1.49728">
        <ele>1592</ele>
        <time>2020-05-21T12:14:33Z</time>
      </trkpt>
      <trkpt lat="42.69647" lon="1.49736">
        <ele>1594</ele>
        <time>2020-05-21T12:14:43Z</time>
      </trkpt>
      <trkpt lat="42.69639" lon="1.49745">
        <ele>1595</ele>
        <time>2020-05-21T12:14:57Z</time>
      </trkpt>
      <trkpt lat="42.69631" lon="1.49752">
        <ele>1591</ele>
        <time>2020-05-21T12:15:08Z</time>
      </trkpt>
      <trkpt lat="42.69618" lon="1.49757">
        <ele>1600</ele>
        <time>2020-05-21T12:15:26Z</time>
      </trkpt>
      <trkpt lat="42.69609" lon="1.49761">
        <ele>1605</ele>
        <time>2020-05-21T12:15:44Z</time>
      </trkpt>
      <trkpt lat="42.69599" lon="1.49762">
        <ele>1608</ele>
        <time>2020-05-21T12:15:56Z</time>
      </trkpt>
      <trkpt lat="42.69591" lon="1.49769">
        <ele>1607</ele>
        <time>2020-05-21T12:16:07Z</time>
      </trkpt>
      <trkpt lat="42.69582" lon="1.49774">
        <ele>1608</ele>
        <time>2020-05-21T12:16:22Z</time>
      </trkpt>
      <trkpt lat="42.69572" lon="1.49777">
        <ele>1611</ele>
        <time>2020-05-21T12:16:35Z</time>
      </trkpt>
      <trkpt lat="42.69563" lon="1.49781">
        <ele>1610</ele>
        <time>2020-05-21T12:16:47Z</time>
      </trkpt>
      <trkpt lat="42.69551" lon="1.49792">
        <ele>1620</ele>
        <time>2020-05-21T12:17:13Z</time>
      </trkpt>
      <trkpt lat="42.69544" lon="1.498">
        <ele>1622</ele>
        <time>2020-05-21T12:17:28Z</time>
      </trkpt>
      <trkpt lat="42.69534" lon="1.49802">
        <ele>1625</ele>
        <time>2020-05-21T12:17:40Z</time>
      </trkpt>
      <trkpt lat="42.69524" lon="1.49801">
        <ele>1631</ele>
        <time>2020-05-21T12:17:55Z</time>
      </trkpt>
      <trkpt lat="42.69514" lon="1.49805">
        <ele>1634</ele>
        <time>2020-05-21T12:18:09Z</time>
      </trkpt>
      <trkpt lat="42.69505" lon="1.49805">
        <ele>1638</ele>
        <time>2020-05-21T12:18:21Z</time>
      </trkpt>
      <trkpt lat="42.69495" lon="1.49807">
        <ele>1644</ele>
        <time>2020-05-21T12:18:37Z</time>
      </trkpt>
      <trkpt lat="42.69486" lon="1.49808">
        <ele>1646</ele>
        <time>2020-05-21T12:18:55Z</time>
      </trkpt>
      <trkpt lat="42.69476" lon="1.49809">
        <ele>1647</ele>
        <time>2020-05-21T12:19:09Z</time>
      </trkpt>
      <trkpt lat="42.69467" lon="1.49814">
        <ele>1651</ele>
        <time>2020-05-21T12:19:26Z</time>
      </trkpt>
      <trkpt lat="42.69457" lon="1.49814">
        <ele>1653</ele>
        <time>2020-05-21T12:19:37Z</time>
      </trkpt>
      <trkpt lat="42.69448" lon="1.49817">
        <ele>1658</ele>
        <time>2020-05-21T12:19:51Z</time>
      </trkpt>
      <trkpt lat="42.69439" lon="1.49822">
        <ele>1658</ele>
        <time>2020-05-21T12:20:02Z</time>
      </trkpt>
      <trkpt lat="42.69427" lon="1.49829">
        <ele>1660</ele>
        <time>2020-05-21T12:21:02Z</time>
      </trkpt>
      <trkpt lat="42.69417" lon="1.49833">
        <ele>1659</ele>
        <time>2020-05-21T12:21:13Z</time>
      </trkpt>
      <trkpt lat="42.69408" lon="1.49835">
        <ele>1657</ele>
        <time>2020-05-21T12:21:32Z</time>
      </trkpt>
      <trkpt lat="42.69399" lon="1.49834">
        <ele>1654</ele>
        <time>2020-05-21T12:22:01Z</time>
      </trkpt>
      <trkpt lat="42.69388" lon="1.49835">
        <ele>1657</ele>
        <time>2020-05-21T12:22:53Z</time>
      </trkpt>
      <trkpt lat="42.69378" lon="1.49837">
        <ele>1655</ele>
        <time>2020-05-21T12:23:02Z</time>
      </trkpt>
      <trkpt lat="42.69368" lon="1.49833">
        <ele>1654</ele>
        <time>2020-05-21T12:23:12Z</time>
      </trkpt>
      <trkpt lat="42.69358" lon="1.49833">
        <ele>1654</ele>
        <time>2020-05-21T12:23:23Z</time>
      </trkpt>
      <trkpt lat="42.69349" lon="1.49833">
        <ele>1653</ele>
        <time>2020-05-21T12:23:33Z</time>
      </trkpt>
      <trkpt lat="42.69338" lon="1.4983">
        <ele>1651</ele>
        <time>2020-05-21T12:23:49Z</time>
      </trkpt>
      <trkpt lat="42.69327" lon="1.4983">
        <ele>1652</ele>
        <time>2020-05-21T12:23:56Z</time>
      </trkpt>
      <trkpt lat="42.69318" lon="1.49832">
        <ele>1655</ele>
        <time>2020-05-21T12:24:15Z</time>
      </trkpt>
      <trkpt lat="42.69308" lon="1.49829">
        <ele>1656</ele>
        <time>2020-05-21T12:24:36Z</time>
      </trkpt>
      <trkpt lat="42.69299" lon="1.49832">
        <ele>1654</ele>
        <time>2020-05-21T12:24:52Z</time>
      </trkpt>
      <trkpt lat="42.69285" lon="1.49835">
        <ele>1652</ele>
        <time>2020-05-21T12:25:05Z</time>
      </trkpt>
      <trkpt lat="42.69276" lon="1.49836">
        <ele>1647</ele>
        <time>2020-05-21T12:25:25Z</time>
      </trkpt>
      <trkpt lat="42.69288" lon="1.49837">
        <ele>1648</ele>
        <time>2020-05-21T12:26:52Z</time>
      </trkpt>
      <trkpt lat="42.69298" lon="1.49832">
        <ele>1651</ele>
        <time>2020-05-21T12:27:02Z</time>
      </trkpt>
      <trkpt lat="42.69306" lon="1.49828">
        <ele>1651</ele>
        <time>2020-05-21T12:27:24Z</time>
      </trkpt>
      <trkpt lat="42.69303" lon="1.49816">
        <ele>1640</ele>
        <time>2020-05-21T12:28:00Z</time>
      </trkpt>
      <trkpt lat="42.69291" lon="1.49821">
        <ele>1640</ele>
        <time>2020-05-21T12:28:33Z</time>
      </trkpt>
      <trkpt lat="42.69279" lon="1.4982">
        <ele>1641</ele>
        <time>2020-05-21T12:32:16Z</time>
      </trkpt>
      <trkpt lat="42.69268" lon="1.49827">
        <ele>1640</ele>
        <time>2020-05-21T12:47:48Z</time>
      </trkpt>
      <trkpt lat="42.69277" lon="1.4982">
        <ele>1634</ele>
        <time>2020-05-21T13:13:33Z</time>
      </trkpt>
      <trkpt lat="42.69269" lon="1.4983">
        <ele>1633</ele>
        <time>2020-05-21T13:16:15Z</time>
      </trkpt>
      <trkpt lat="42.69258" lon="1.49841">
        <ele>1628</ele>
        <time>2020-05-21T13:17:07Z</time>
      </trkpt>
      <trkpt lat="42.69251" lon="1.4985">
        <ele>1634</ele>
        <time>2020-05-21T13:17:53Z</time>
      </trkpt>
      <trkpt lat="42.69242" lon="1.49857">
        <ele>1629</ele>
        <time>2020-05-21T13:18:02Z</time>
      </trkpt>
      <trkpt lat="42.69233" lon="1.49863">
        <ele>1630</ele>
        <time>2020-05-21T13:18:11Z</time>
      </trkpt>
      <trkpt lat="42.69225" lon="1.4987">
        <ele>1632</ele>
        <time>2020-05-21T13:18:25Z</time>
      </trkpt>
      <trkpt lat="42.69214" lon="1.49867">
        <ele>1632</ele>
        <time>2020-05-21T13:18:37Z</time>
      </trkpt>
      <trkpt lat="42.69203" lon="1.49867">
        <ele>1638</ele>
        <time>2020-05-21T13:18:47Z</time>
      </trkpt>
      <trkpt lat="42.69195" lon="1.49875">
        <ele>1635</ele>
        <time>2020-05-21T13:18:59Z</time>
      </trkpt>
      <trkpt lat="42.69194" lon="1.49893">
        <ele>1636</ele>
        <time>2020-05-21T13:19:24Z</time>
      </trkpt>
      <trkpt lat="42.69194" lon="1.49907">
        <ele>1643</ele>
        <time>2020-05-21T13:19:38Z</time>
      </trkpt>
      <trkpt lat="42.69195" lon="1.4992">
        <ele>1645</ele>
        <time>2020-05-21T13:19:52Z</time>
      </trkpt>
      <trkpt lat="42.69198" lon="1.49933">
        <ele>1643</ele>
        <time>2020-05-21T13:20:06Z</time>
      </trkpt>
      <trkpt lat="42.69199" lon="1.49946">
        <ele>1644</ele>
        <time>2020-05-21T13:20:19Z</time>
      </trkpt>
      <trkpt lat="42.69205" lon="1.49963">
        <ele>1642</ele>
        <time>2020-05-21T13:20:40Z</time>
      </trkpt>
      <trkpt lat="42.69206" lon="1.49975">
        <ele>1644</ele>
        <time>2020-05-21T13:20:59Z</time>
      </trkpt>
      <trkpt lat="42.69202" lon="1.49987">
        <ele>1650</ele>
        <time>2020-05-21T13:21:18Z</time>
      </trkpt>
      <trkpt lat="42.69196" lon="1.49997">
        <ele>1654</ele>
        <time>2020-05-21T13:21:29Z</time>
      </trkpt>
      <trkpt lat="42.69185" lon="1.49999">
        <ele>1667</ele>
        <time>2020-05-21T13:21:37Z</time>
      </trkpt>
      <trkpt lat="42.69174" lon="1.50001">
        <ele>1665</ele>
        <time>2020-05-21T13:21:46Z</time>
      </trkpt>
      <trkpt lat="42.69165" lon="1.50005">
        <ele>1662</ele>
        <time>2020-05-21T13:21:55Z</time>
      </trkpt>
      <trkpt lat="42.69155" lon="1.50011">
        <ele>1661</ele>
        <time>2020-05-21T13:22:07Z</time>
      </trkpt>
      <trkpt lat="42.69145" lon="1.50012">
        <ele>1663</ele>
        <time>2020-05-21T13:22:18Z</time>
      </trkpt>
      <trkpt lat="42.69135" lon="1.50009">
        <ele>1663</ele>
        <time>2020-05-21T13:22:31Z</time>
      </trkpt>
      <trkpt lat="42.69126" lon="1.50009">
        <ele>1669</ele>
        <time>2020-05-21T13:22:41Z</time>
      </trkpt>
      <trkpt lat="42.69116" lon="1.50009">
        <ele>1679</ele>
        <time>2020-05-21T13:22:53Z</time>
      </trkpt>
      <trkpt lat="42.69106" lon="1.50007">
        <ele>1679</ele>
        <time>2020-05-21T13:23:04Z</time>
      </trkpt>
      <trkpt lat="42.69096" lon="1.50008">
        <ele>1674</ele>
        <time>2020-05-21T13:23:17Z</time>
      </trkpt>
      <trkpt lat="42.69086" lon="1.50012">
        <ele>1675</ele>
        <time>2020-05-21T13:23:28Z</time>
      </trkpt>
      <trkpt lat="42.69076" lon="1.50013">
        <ele>1676</ele>
        <time>2020-05-21T13:23:37Z</time>
      </trkpt>
      <trkpt lat="42.69067" lon="1.50018">
        <ele>1680</ele>
        <time>2020-05-21T13:23:50Z</time>
      </trkpt>
      <trkpt lat="42.69055" lon="1.50027">
        <ele>1669</ele>
        <time>2020-05-21T13:24:08Z</time>
      </trkpt>
      <trkpt lat="42.69045" lon="1.50025">
        <ele>1668</ele>
        <time>2020-05-21T13:24:20Z</time>
      </trkpt>
      <trkpt lat="42.69036" lon="1.5002">
        <ele>1670</ele>
        <time>2020-05-21T13:24:28Z</time>
      </trkpt>
      <trkpt lat="42.69026" lon="1.50019">
        <ele>1664</ele>
        <time>2020-05-21T13:24:39Z</time>
      </trkpt>
      <trkpt lat="42.69016" lon="1.5002">
        <ele>1662</ele>
        <time>2020-05-21T13:24:49Z</time>
      </trkpt>
      <trkpt lat="42.69007" lon="1.50021">
        <ele>1660</ele>
        <time>2020-05-21T13:25:05Z</time>
      </trkpt>
      <trkpt lat="42.68997" lon="1.50022">
        <ele>1658</ele>
        <time>2020-05-21T13:25:18Z</time>
      </trkpt>
      <trkpt lat="42.68987" lon="1.50027">
        <ele>1661</ele>
        <time>2020-05-21T13:25:29Z</time>
      </trkpt>
      <trkpt lat="42.68977" lon="1.50031">
        <ele>1665</ele>
        <time>2020-05-21T13:25:47Z</time>
      </trkpt>
      <trkpt lat="42.68967" lon="1.50035">
        <ele>1659</ele>
        <time>2020-05-21T13:25:58Z</time>
      </trkpt>
      <trkpt lat="42.68958" lon="1.5004">
        <ele>1661</ele>
        <time>2020-05-21T13:26:07Z</time>
      </trkpt>
      <trkpt lat="42.68945" lon="1.50048">
        <ele>1655</ele>
        <time>2020-05-21T13:26:24Z</time>
      </trkpt>
      <trkpt lat="42.68937" lon="1.50055">
        <ele>1651</ele>
        <time>2020-05-21T13:26:35Z</time>
      </trkpt>
      <trkpt lat="42.68927" lon="1.50057">
        <ele>1649</ele>
        <time>2020-05-21T13:26:45Z</time>
      </trkpt>
      <trkpt lat="42.68917" lon="1.50058">
        <ele>1649</ele>
        <time>2020-05-21T13:26:54Z</time>
      </trkpt>
      <trkpt lat="42.68907" lon="1.5006">
        <ele>1652</ele>
        <time>2020-05-21T13:27:10Z</time>
      </trkpt>
      <trkpt lat="42.68897" lon="1.50058">
        <ele>1651</ele>
        <time>2020-05-21T13:27:17Z</time>
      </trkpt>
      <trkpt lat="42.6889" lon="1.50066">
        <ele>1649</ele>
        <time>2020-05-21T13:27:26Z</time>
      </trkpt>
      <trkpt lat="42.68883" lon="1.50074">
        <ele>1646</ele>
        <time>2020-05-21T13:27:37Z</time>
      </trkpt>
      <trkpt lat="42.68876" lon="1.50083">
        <ele>1644</ele>
        <time>2020-05-21T13:27:49Z</time>
      </trkpt>
      <trkpt lat="42.68868" lon="1.50092">
        <ele>1642</ele>
        <time>2020-05-21T13:27:58Z</time>
      </trkpt>
      <trkpt lat="42.6886" lon="1.50098">
        <ele>1642</ele>
        <time>2020-05-21T13:28:11Z</time>
      </trkpt>
      <trkpt lat="42.6885" lon="1.501">
        <ele>1643</ele>
        <time>2020-05-21T13:28:25Z</time>
      </trkpt>
      <trkpt lat="42.6884" lon="1.50103">
        <ele>1644</ele>
        <time>2020-05-21T13:28:37Z</time>
      </trkpt>
      <trkpt lat="42.6883" lon="1.50104">
        <ele>1642</ele>
        <time>2020-05-21T13:28:55Z</time>
      </trkpt>
      <trkpt lat="42.68821" lon="1.50101">
        <ele>1641</ele>
        <time>2020-05-21T13:29:13Z</time>
      </trkpt>
      <trkpt lat="42.68811" lon="1.50102">
        <ele>1642</ele>
        <time>2020-05-21T13:29:26Z</time>
      </trkpt>
      <trkpt lat="42.68801" lon="1.50105">
        <ele>1640</ele>
        <time>2020-05-21T13:29:37Z</time>
      </trkpt>
      <trkpt lat="42.6879" lon="1.50109">
        <ele>1643</ele>
        <time>2020-05-21T13:29:47Z</time>
      </trkpt>
      <trkpt lat="42.68781" lon="1.50115">
        <ele>1641</ele>
        <time>2020-05-21T13:29:57Z</time>
      </trkpt>
      <trkpt lat="42.68771" lon="1.50116">
        <ele>1644</ele>
        <time>2020-05-21T13:30:05Z</time>
      </trkpt>
      <trkpt lat="42.6876" lon="1.50115">
        <ele>1644</ele>
        <time>2020-05-21T13:30:15Z</time>
      </trkpt>
      <trkpt lat="42.68752" lon="1.50121">
        <ele>1644</ele>
        <time>2020-05-21T13:30:25Z</time>
      </trkpt>
      <trkpt lat="42.68742" lon="1.50123">
        <ele>1642</ele>
        <time>2020-05-21T13:30:36Z</time>
      </trkpt>
      <trkpt lat="42.68733" lon="1.50126">
        <ele>1643</ele>
        <time>2020-05-21T13:30:48Z</time>
      </trkpt>
      <trkpt lat="42.68725" lon="1.50132">
        <ele>1643</ele>
        <time>2020-05-21T13:31:00Z</time>
      </trkpt>
      <trkpt lat="42.68715" lon="1.50135">
        <ele>1644</ele>
        <time>2020-05-21T13:31:13Z</time>
      </trkpt>
      <trkpt lat="42.68706" lon="1.50139">
        <ele>1645</ele>
        <time>2020-05-21T13:31:25Z</time>
      </trkpt>
      <trkpt lat="42.68697" lon="1.50143">
        <ele>1640</ele>
        <time>2020-05-21T13:31:40Z</time>
      </trkpt>
      <trkpt lat="42.68688" lon="1.50143">
        <ele>1640</ele>
        <time>2020-05-21T13:31:49Z</time>
      </trkpt>
      <trkpt lat="42.68677" lon="1.50141">
        <ele>1644</ele>
        <time>2020-05-21T13:31:58Z</time>
      </trkpt>
      <trkpt lat="42.68666" lon="1.50141">
        <ele>1650</ele>
        <time>2020-05-21T13:32:08Z</time>
      </trkpt>
      <trkpt lat="42.68655" lon="1.50142">
        <ele>1651</ele>
        <time>2020-05-21T13:32:16Z</time>
      </trkpt>
      <trkpt lat="42.68646" lon="1.5014">
        <ele>1651</ele>
        <time>2020-05-21T13:32:25Z</time>
      </trkpt>
      <trkpt lat="42.68637" lon="1.50145">
        <ele>1648</ele>
        <time>2020-05-21T13:32:36Z</time>
      </trkpt>
      <trkpt lat="42.68627" lon="1.50145">
        <ele>1648</ele>
        <time>2020-05-21T13:32:50Z</time>
      </trkpt>
      <trkpt lat="42.68617" lon="1.50144">
        <ele>1645</ele>
        <time>2020-05-21T13:33:01Z</time>
      </trkpt>
      <trkpt lat="42.68608" lon="1.50139">
        <ele>1647</ele>
        <time>2020-05-21T13:33:15Z</time>
      </trkpt>
      <trkpt lat="42.68599" lon="1.50134">
        <ele>1645</ele>
        <time>2020-05-21T13:33:32Z</time>
      </trkpt>
      <trkpt lat="42.68591" lon="1.50128">
        <ele>1645</ele>
        <time>2020-05-21T13:33:43Z</time>
      </trkpt>
      <trkpt lat="42.68582" lon="1.5012">
        <ele>1647</ele>
        <time>2020-05-21T13:33:56Z</time>
      </trkpt>
      <trkpt lat="42.68572" lon="1.50114">
        <ele>1644</ele>
        <time>2020-05-21T13:34:11Z</time>
      </trkpt>
      <trkpt lat="42.68562" lon="1.5011">
        <ele>1647</ele>
        <time>2020-05-21T13:34:21Z</time>
      </trkpt>
      <trkpt lat="42.68554" lon="1.50104">
        <ele>1649</ele>
        <time>2020-05-21T13:34:31Z</time>
      </trkpt>
      <trkpt lat="42.68548" lon="1.50092">
        <ele>1651</ele>
        <time>2020-05-21T13:34:41Z</time>
      </trkpt>
      <trkpt lat="42.68539" lon="1.50085">
        <ele>1650</ele>
        <time>2020-05-21T13:34:53Z</time>
      </trkpt>
      <trkpt lat="42.68531" lon="1.50079">
        <ele>1647</ele>
        <time>2020-05-21T13:35:02Z</time>
      </trkpt>
      <trkpt lat="42.6852" lon="1.50076">
        <ele>1648</ele>
        <time>2020-05-21T13:35:12Z</time>
      </trkpt>
      <trkpt lat="42.6851" lon="1.50075">
        <ele>1647</ele>
        <time>2020-05-21T13:35:22Z</time>
      </trkpt>
      <trkpt lat="42.685" lon="1.50071">
        <ele>1650</ele>
        <time>2020-05-21T13:35:34Z</time>
      </trkpt>
      <trkpt lat="42.68491" lon="1.50067">
        <ele>1649</ele>
        <time>2020-05-21T13:35:43Z</time>
      </trkpt>
      <trkpt lat="42.68482" lon="1.50058">
        <ele>1648</ele>
        <time>2020-05-21T13:35:54Z</time>
      </trkpt>
      <trkpt lat="42.68475" lon="1.50051">
        <ele>1652</ele>
        <time>2020-05-21T13:36:18Z</time>
      </trkpt>
      <trkpt lat="42.68469" lon="1.50042">
        <ele>1652</ele>
        <time>2020-05-21T13:36:39Z</time>
      </trkpt>
      <trkpt lat="42.68468" lon="1.50025">
        <ele>1657</ele>
        <time>2020-05-21T13:37:03Z</time>
      </trkpt>
      <trkpt lat="42.68477" lon="1.50011">
        <ele>1668</ele>
        <time>2020-05-21T13:38:21Z</time>
      </trkpt>
      <trkpt lat="42.68473" lon="1.5">
        <ele>1666</ele>
        <time>2020-05-21T13:38:30Z</time>
      </trkpt>
      <trkpt lat="42.68469" lon="1.49986">
        <ele>1665</ele>
        <time>2020-05-21T13:38:39Z</time>
      </trkpt>
      <trkpt lat="42.68462" lon="1.49976">
        <ele>1668</ele>
        <time>2020-05-21T13:38:52Z</time>
      </trkpt>
      <trkpt lat="42.68452" lon="1.49974">
        <ele>1667</ele>
        <time>2020-05-21T13:39:02Z</time>
      </trkpt>
      <trkpt lat="42.68445" lon="1.49963">
        <ele>1667</ele>
        <time>2020-05-21T13:39:14Z</time>
      </trkpt>
      <trkpt lat="42.68441" lon="1.49952">
        <ele>1667</ele>
        <time>2020-05-21T13:39:49Z</time>
      </trkpt>
      <trkpt lat="42.6844" lon="1.49938">
        <ele>1665</ele>
        <time>2020-05-21T13:39:59Z</time>
      </trkpt>
      <trkpt lat="42.68432" lon="1.4993">
        <ele>1666</ele>
        <time>2020-05-21T13:40:46Z</time>
      </trkpt>
      <trkpt lat="42.68432" lon="1.49911">
        <ele>1669</ele>
        <time>2020-05-21T13:41:38Z</time>
      </trkpt>
      <trkpt lat="42.68425" lon="1.49905">
        <ele>1669</ele>
        <time>2020-05-21T13:41:59Z</time>
      </trkpt>
      <trkpt lat="42.68419" lon="1.49894">
        <ele>1668</ele>
        <time>2020-05-21T13:42:15Z</time>
      </trkpt>
      <trkpt lat="42.68414" lon="1.49882">
        <ele>1668</ele>
        <time>2020-05-21T13:42:32Z</time>
      </trkpt>
      <trkpt lat="42.68412" lon="1.49869">
        <ele>1661</ele>
        <time>2020-05-21T13:42:44Z</time>
      </trkpt>
      <trkpt lat="42.68409" lon="1.49856">
        <ele>1661</ele>
        <time>2020-05-21T13:43:01Z</time>
      </trkpt>
      <trkpt lat="42.6841" lon="1.49844">
        <ele>1661</ele>
        <time>2020-05-21T13:43:27Z</time>
      </trkpt>
      <trkpt lat="42.68405" lon="1.49833">
        <ele>1660</ele>
        <time>2020-05-21T13:43:48Z</time>
      </trkpt>
      <trkpt lat="42.68396" lon="1.49825">
        <ele>1661</ele>
        <time>2020-05-21T13:44:01Z</time>
      </trkpt>
      <trkpt lat="42.6839" lon="1.49815">
        <ele>1662</ele>
        <time>2020-05-21T13:44:14Z</time>
      </trkpt>
      <trkpt lat="42.68384" lon="1.49805">
        <ele>1661</ele>
        <time>2020-05-21T13:44:28Z</time>
      </trkpt>
      <trkpt lat="42.68396" lon="1.49802">
        <ele>1658</ele>
        <time>2020-05-21T13:45:34Z</time>
      </trkpt>
      <trkpt lat="42.68405" lon="1.49798">
        <ele>1653</ele>
        <time>2020-05-21T13:45:46Z</time>
      </trkpt>
      <trkpt lat="42.68414" lon="1.49797">
        <ele>1642</ele>
        <time>2020-05-21T13:46:07Z</time>
      </trkpt>
      <trkpt lat="42.68423" lon="1.49795">
        <ele>1648</ele>
        <time>2020-05-21T13:46:28Z</time>
      </trkpt>
      <trkpt lat="42.68432" lon="1.49789">
        <ele>1648</ele>
        <time>2020-05-21T13:46:49Z</time>
      </trkpt>
      <trkpt lat="42.68437" lon="1.49778">
        <ele>1641</ele>
        <time>2020-05-21T13:47:02Z</time>
      </trkpt>
      <trkpt lat="42.6844" lon="1.49766">
        <ele>1642</ele>
        <time>2020-05-21T13:47:15Z</time>
      </trkpt>
      <trkpt lat="42.68441" lon="1.49754">
        <ele>1648</ele>
        <time>2020-05-21T13:47:27Z</time>
      </trkpt>
      <trkpt lat="42.6844" lon="1.49741">
        <ele>1651</ele>
        <time>2020-05-21T13:47:40Z</time>
      </trkpt>
      <trkpt lat="42.68438" lon="1.49726">
        <ele>1661</ele>
        <time>2020-05-21T13:49:32Z</time>
      </trkpt>
      <trkpt lat="42.6845" lon="1.49728">
        <ele>1648</ele>
        <time>2020-05-21T13:52:55Z</time>
      </trkpt>
      <trkpt lat="42.68457" lon="1.49719">
        <ele>1647</ele>
        <time>2020-05-21T13:53:09Z</time>
      </trkpt>
      <trkpt lat="42.68467" lon="1.49718">
        <ele>1645</ele>
        <time>2020-05-21T13:53:22Z</time>
      </trkpt>
      <trkpt lat="42.68474" lon="1.4971">
        <ele>1642</ele>
        <time>2020-05-21T13:53:33Z</time>
      </trkpt>
      <trkpt lat="42.6848" lon="1.497">
        <ele>1647</ele>
        <time>2020-05-21T13:53:50Z</time>
      </trkpt>
      <trkpt lat="42.68486" lon="1.4969">
        <ele>1649</ele>
        <time>2020-05-21T13:54:08Z</time>
      </trkpt>
      <trkpt lat="42.68498" lon="1.49682">
        <ele>1641</ele>
        <time>2020-05-21T13:54:50Z</time>
      </trkpt>
      <trkpt lat="42.68507" lon="1.49678">
        <ele>1637</ele>
        <time>2020-05-21T13:55:09Z</time>
      </trkpt>
      <trkpt lat="42.68515" lon="1.49663">
        <ele>1632</ele>
        <time>2020-05-21T13:55:37Z</time>
      </trkpt>
      <trkpt lat="42.68524" lon="1.49663">
        <ele>1644</ele>
        <time>2020-05-21T13:56:12Z</time>
      </trkpt>
      <trkpt lat="42.68534" lon="1.49662">
        <ele>1646</ele>
        <time>2020-05-21T13:56:26Z</time>
      </trkpt>
      <trkpt lat="42.6854" lon="1.49653">
        <ele>1638</ele>
        <time>2020-05-21T13:56:51Z</time>
      </trkpt>
      <trkpt lat="42.68549" lon="1.49656">
        <ele>1644</ele>
        <time>2020-05-21T13:57:19Z</time>
      </trkpt>
      <trkpt lat="42.68557" lon="1.4966">
        <ele>1649</ele>
        <time>2020-05-21T13:57:41Z</time>
      </trkpt>
      <trkpt lat="42.68567" lon="1.49661">
        <ele>1653</ele>
        <time>2020-05-21T13:58:03Z</time>
      </trkpt>
      <trkpt lat="42.68577" lon="1.49662">
        <ele>1646</ele>
        <time>2020-05-21T13:58:19Z</time>
      </trkpt>
      <trkpt lat="42.68584" lon="1.49653">
        <ele>1647</ele>
        <time>2020-05-21T13:58:32Z</time>
      </trkpt>
      <trkpt lat="42.68587" lon="1.49641">
        <ele>1653</ele>
        <time>2020-05-21T13:59:02Z</time>
      </trkpt>
      <trkpt lat="42.68591" lon="1.49629">
        <ele>1652</ele>
        <time>2020-05-21T13:59:18Z</time>
      </trkpt>
      <trkpt lat="42.6859" lon="1.49612">
        <ele>1645</ele>
        <time>2020-05-21T14:03:55Z</time>
      </trkpt>
      <trkpt lat="42.68599" lon="1.49605">
        <ele>1651</ele>
        <time>2020-05-21T14:04:12Z</time>
      </trkpt>
      <trkpt lat="42.68608" lon="1.49607">
        <ele>1649</ele>
        <time>2020-05-21T14:04:22Z</time>
      </trkpt>
      <trkpt lat="42.68616" lon="1.49599">
        <ele>1653</ele>
        <time>2020-05-21T14:04:40Z</time>
      </trkpt>
      <trkpt lat="42.68624" lon="1.49591">
        <ele>1650</ele>
        <time>2020-05-21T14:04:49Z</time>
      </trkpt>
      <trkpt lat="42.68632" lon="1.49581">
        <ele>1643</ele>
        <time>2020-05-21T14:04:59Z</time>
      </trkpt>
      <trkpt lat="42.68638" lon="1.49571">
        <ele>1643</ele>
        <time>2020-05-21T14:05:22Z</time>
      </trkpt>
      <trkpt lat="42.68645" lon="1.49562">
        <ele>1649</ele>
        <time>2020-05-21T14:05:39Z</time>
      </trkpt>
      <trkpt lat="42.68649" lon="1.49551">
        <ele>1651</ele>
        <time>2020-05-21T14:06:08Z</time>
      </trkpt>
      <trkpt lat="42.68659" lon="1.49537">
        <ele>1645</ele>
        <time>2020-05-21T14:07:44Z</time>
      </trkpt>
      <trkpt lat="42.68666" lon="1.49529">
        <ele>1646</ele>
        <time>2020-05-21T14:07:58Z</time>
      </trkpt>
      <trkpt lat="42.68674" lon="1.4952">
        <ele>1650</ele>
        <time>2020-05-21T14:08:11Z</time>
      </trkpt>
      <trkpt lat="42.68678" lon="1.49509">
        <ele>1655</ele>
        <time>2020-05-21T14:08:31Z</time>
      </trkpt>
      <trkpt lat="42.68682" lon="1.49497">
        <ele>1656</ele>
        <time>2020-05-21T14:08:49Z</time>
      </trkpt>
      <trkpt lat="42.68689" lon="1.49489">
        <ele>1664</ele>
        <time>2020-05-21T14:09:09Z</time>
      </trkpt>
      <trkpt lat="42.68694" lon="1.49477">
        <ele>1659</ele>
        <time>2020-05-21T14:09:18Z</time>
      </trkpt>
      <trkpt lat="42.68704" lon="1.49474">
        <ele>1657</ele>
        <time>2020-05-21T14:09:30Z</time>
      </trkpt>
      <trkpt lat="42.68712" lon="1.49468">
        <ele>1660</ele>
        <time>2020-05-21T14:09:49Z</time>
      </trkpt>
      <trkpt lat="42.68721" lon="1.4947">
        <ele>1661</ele>
        <time>2020-05-21T14:10:16Z</time>
      </trkpt>
      <trkpt lat="42.6873" lon="1.49474">
        <ele>1659</ele>
        <time>2020-05-21T14:10:34Z</time>
      </trkpt>
      <trkpt lat="42.6874" lon="1.49479">
        <ele>1661</ele>
        <time>2020-05-21T14:10:49Z</time>
      </trkpt>
      <trkpt lat="42.6875" lon="1.4948">
        <ele>1667</ele>
        <time>2020-05-21T14:11:00Z</time>
      </trkpt>
      <trkpt lat="42.68759" lon="1.49478">
        <ele>1663</ele>
        <time>2020-05-21T14:11:11Z</time>
      </trkpt>
      <trkpt lat="42.68767" lon="1.49471">
        <ele>1660</ele>
        <time>2020-05-21T14:11:39Z</time>
      </trkpt>
      <trkpt lat="42.68775" lon="1.49477">
        <ele>1663</ele>
        <time>2020-05-21T14:11:52Z</time>
      </trkpt>
      <trkpt lat="42.68788" lon="1.49472">
        <ele>1659</ele>
        <time>2020-05-21T14:12:10Z</time>
      </trkpt>
      <trkpt lat="42.68797" lon="1.49471">
        <ele>1662</ele>
        <time>2020-05-21T14:12:46Z</time>
      </trkpt>
      <trkpt lat="42.68806" lon="1.49465">
        <ele>1664</ele>
        <time>2020-05-21T14:13:03Z</time>
      </trkpt>
      <trkpt lat="42.68815" lon="1.49464">
        <ele>1664</ele>
        <time>2020-05-21T14:14:00Z</time>
      </trkpt>
      <trkpt lat="42.68825" lon="1.49462">
        <ele>1659</ele>
        <time>2020-05-21T14:14:11Z</time>
      </trkpt>
      <trkpt lat="42.68835" lon="1.49462">
        <ele>1659</ele>
        <time>2020-05-21T14:14:23Z</time>
      </trkpt>
      <trkpt lat="42.68845" lon="1.49462">
        <ele>1661</ele>
        <time>2020-05-21T14:14:36Z</time>
      </trkpt>
      <trkpt lat="42.68856" lon="1.49461">
        <ele>1659</ele>
        <time>2020-05-21T14:14:47Z</time>
      </trkpt>
      <trkpt lat="42.68866" lon="1.49458">
        <ele>1655</ele>
        <time>2020-05-21T14:14:56Z</time>
      </trkpt>
      <trkpt lat="42.68876" lon="1.49458">
        <ele>1652</ele>
        <time>2020-05-21T14:15:18Z</time>
      </trkpt>
      <trkpt lat="42.68885" lon="1.49453">
        <ele>1650</ele>
        <time>2020-05-21T14:15:44Z</time>
      </trkpt>
      <trkpt lat="42.6889" lon="1.49463">
        <ele>1661</ele>
        <time>2020-05-21T14:16:14Z</time>
      </trkpt>
      <trkpt lat="42.689" lon="1.49468">
        <ele>1668</ele>
        <time>2020-05-21T14:17:26Z</time>
      </trkpt>
      <trkpt lat="42.68909" lon="1.4947">
        <ele>1666</ele>
        <time>2020-05-21T14:18:56Z</time>
      </trkpt>
      <trkpt lat="42.68919" lon="1.49475">
        <ele>1665</ele>
        <time>2020-05-21T14:19:06Z</time>
      </trkpt>
      <trkpt lat="42.68929" lon="1.49476">
        <ele>1666</ele>
        <time>2020-05-21T14:19:17Z</time>
      </trkpt>
      <trkpt lat="42.68939" lon="1.49473">
        <ele>1667</ele>
        <time>2020-05-21T14:19:27Z</time>
      </trkpt>
      <trkpt lat="42.68948" lon="1.49477">
        <ele>1668</ele>
        <time>2020-05-21T14:19:38Z</time>
      </trkpt>
      <trkpt lat="42.68959" lon="1.49471">
        <ele>1668</ele>
        <time>2020-05-21T14:19:49Z</time>
      </trkpt>
      <trkpt lat="42.68968" lon="1.49467">
        <ele>1670</ele>
        <time>2020-05-21T14:19:57Z</time>
      </trkpt>
      <trkpt lat="42.68977" lon="1.49469">
        <ele>1670</ele>
        <time>2020-05-21T14:20:11Z</time>
      </trkpt>
      <trkpt lat="42.68986" lon="1.49475">
        <ele>1672</ele>
        <time>2020-05-21T14:20:21Z</time>
      </trkpt>
      <trkpt lat="42.68994" lon="1.49482">
        <ele>1673</ele>
        <time>2020-05-21T14:20:29Z</time>
      </trkpt>
      <trkpt lat="42.69003" lon="1.49489">
        <ele>1672</ele>
        <time>2020-05-21T14:20:40Z</time>
      </trkpt>
      <trkpt lat="42.69013" lon="1.49492">
        <ele>1669</ele>
        <time>2020-05-21T14:20:52Z</time>
      </trkpt>
      <trkpt lat="42.69022" lon="1.49496">
        <ele>1667</ele>
        <time>2020-05-21T14:21:08Z</time>
      </trkpt>
      <trkpt lat="42.6903" lon="1.49501">
        <ele>1660</ele>
        <time>2020-05-21T14:21:25Z</time>
      </trkpt>
      <trkpt lat="42.69039" lon="1.49509">
        <ele>1659</ele>
        <time>2020-05-21T14:21:35Z</time>
      </trkpt>
      <trkpt lat="42.69049" lon="1.49512">
        <ele>1663</ele>
        <time>2020-05-21T14:21:44Z</time>
      </trkpt>
      <trkpt lat="42.69058" lon="1.49517">
        <ele>1664</ele>
        <time>2020-05-21T14:21:53Z</time>
      </trkpt>
      <trkpt lat="42.69065" lon="1.49526">
        <ele>1661</ele>
        <time>2020-05-21T14:22:02Z</time>
      </trkpt>
      <trkpt lat="42.69073" lon="1.49533">
        <ele>1661</ele>
        <time>2020-05-21T14:22:13Z</time>
      </trkpt>
      <trkpt lat="42.69079" lon="1.49543">
        <ele>1659</ele>
        <time>2020-05-21T14:22:23Z</time>
      </trkpt>
      <trkpt lat="42.69088" lon="1.4955">
        <ele>1656</ele>
        <time>2020-05-21T14:22:32Z</time>
      </trkpt>
      <trkpt lat="42.69097" lon="1.49551">
        <ele>1656</ele>
        <time>2020-05-21T14:22:39Z</time>
      </trkpt>
      <trkpt lat="42.69107" lon="1.49554">
        <ele>1653</ele>
        <time>2020-05-21T14:22:48Z</time>
      </trkpt>
      <trkpt lat="42.69115" lon="1.49558">
        <ele>1652</ele>
        <time>2020-05-21T14:22:57Z</time>
      </trkpt>
      <trkpt lat="42.6912" lon="1.49571">
        <ele>1653</ele>
        <time>2020-05-21T14:23:05Z</time>
      </trkpt>
      <trkpt lat="42.69127" lon="1.49582">
        <ele>1654</ele>
        <time>2020-05-21T14:23:15Z</time>
      </trkpt>
      <trkpt lat="42.69135" lon="1.49591">
        <ele>1659</ele>
        <time>2020-05-21T14:23:25Z</time>
      </trkpt>
      <trkpt lat="42.69144" lon="1.496">
        <ele>1656</ele>
        <time>2020-05-21T14:23:37Z</time>
      </trkpt>
      <trkpt lat="42.69144" lon="1.49617">
        <ele>1647</ele>
        <time>2020-05-21T14:24:57Z</time>
      </trkpt>
      <trkpt lat="42.69154" lon="1.49629">
        <ele>1638</ele>
        <time>2020-05-21T14:25:24Z</time>
      </trkpt>
      <trkpt lat="42.69164" lon="1.49629">
        <ele>1642</ele>
        <time>2020-05-21T14:25:37Z</time>
      </trkpt>
      <trkpt lat="42.69171" lon="1.4962">
        <ele>1641</ele>
        <time>2020-05-21T14:26:07Z</time>
      </trkpt>
      <trkpt lat="42.6918" lon="1.49616">
        <ele>1640</ele>
        <time>2020-05-21T14:26:24Z</time>
      </trkpt>
      <trkpt lat="42.6919" lon="1.49621">
        <ele>1642</ele>
        <time>2020-05-21T14:26:35Z</time>
      </trkpt>
      <trkpt lat="42.69199" lon="1.49624">
        <ele>1642</ele>
        <time>2020-05-21T14:26:46Z</time>
      </trkpt>
      <trkpt lat="42.69209" lon="1.49623">
        <ele>1640</ele>
        <time>2020-05-21T14:26:59Z</time>
      </trkpt>
      <trkpt lat="42.69219" lon="1.49622">
        <ele>1644</ele>
        <time>2020-05-21T14:27:12Z</time>
      </trkpt>
      <trkpt lat="42.69229" lon="1.4962">
        <ele>1646</ele>
        <time>2020-05-21T14:27:23Z</time>
      </trkpt>
      <trkpt lat="42.69237" lon="1.49615">
        <ele>1645</ele>
        <time>2020-05-21T14:27:31Z</time>
      </trkpt>
      <trkpt lat="42.69244" lon="1.49625">
        <ele>1644</ele>
        <time>2020-05-21T14:27:41Z</time>
      </trkpt>
      <trkpt lat="42.69254" lon="1.49622">
        <ele>1645</ele>
        <time>2020-05-21T14:28:20Z</time>
      </trkpt>
      <trkpt lat="42.69263" lon="1.49629">
        <ele>1653</ele>
        <time>2020-05-21T14:29:35Z</time>
      </trkpt>
      <trkpt lat="42.69271" lon="1.49635">
        <ele>1649</ele>
        <time>2020-05-21T14:30:11Z</time>
      </trkpt>
      <trkpt lat="42.69276" lon="1.49653">
        <ele>1641</ele>
        <time>2020-05-21T14:30:25Z</time>
      </trkpt>
      <trkpt lat="42.69277" lon="1.49667">
        <ele>1644</ele>
        <time>2020-05-21T14:30:32Z</time>
      </trkpt>
      <trkpt lat="42.69279" lon="1.49679">
        <ele>1646</ele>
        <time>2020-05-21T14:30:45Z</time>
      </trkpt>
      <trkpt lat="42.69281" lon="1.49693">
        <ele>1645</ele>
        <time>2020-05-21T14:30:54Z</time>
      </trkpt>
      <trkpt lat="42.69283" lon="1.49706">
        <ele>1647</ele>
        <time>2020-05-21T14:31:03Z</time>
      </trkpt>
      <trkpt lat="42.69284" lon="1.4972">
        <ele>1648</ele>
        <time>2020-05-21T14:31:11Z</time>
      </trkpt>
      <trkpt lat="42.69285" lon="1.49734">
        <ele>1646</ele>
        <time>2020-05-21T14:31:19Z</time>
      </trkpt>
      <trkpt lat="42.69285" lon="1.49748">
        <ele>1644</ele>
        <time>2020-05-21T14:31:29Z</time>
      </trkpt>
      <trkpt lat="42.69287" lon="1.49761">
        <ele>1645</ele>
        <time>2020-05-21T14:31:37Z</time>
      </trkpt>
      <trkpt lat="42.69288" lon="1.49775">
        <ele>1643</ele>
        <time>2020-05-21T14:31:53Z</time>
      </trkpt>
      <trkpt lat="42.69291" lon="1.49791">
        <ele>1640</ele>
        <time>2020-05-21T14:32:01Z</time>
      </trkpt>
      <trkpt lat="42.69293" lon="1.49805">
        <ele>1640</ele>
        <time>2020-05-21T14:32:08Z</time>
      </trkpt>
      <trkpt lat="42.69302" lon="1.498">
        <ele>1641</ele>
        <time>2020-05-21T14:32:52Z</time>
      </trkpt>
      <trkpt lat="42.69309" lon="1.49786">
        <ele>1627</ele>
        <time>2020-05-21T14:33:16Z</time>
      </trkpt>
      <trkpt lat="42.69315" lon="1.49775">
        <ele>1622</ele>
        <time>2020-05-21T14:33:34Z</time>
      </trkpt>
      <trkpt lat="42.69317" lon="1.49762">
        <ele>1616</ele>
        <time>2020-05-21T14:33:50Z</time>
      </trkpt>
      <trkpt lat="42.6932" lon="1.49749">
        <ele>1612</ele>
        <time>2020-05-21T14:34:03Z</time>
      </trkpt>
      <trkpt lat="42.69309" lon="1.49739">
        <ele>1610</ele>
        <time>2020-05-21T14:34:20Z</time>
      </trkpt>
      <trkpt lat="42.69308" lon="1.49727">
        <ele>1607</ele>
        <time>2020-05-21T14:34:42Z</time>
      </trkpt>
      <trkpt lat="42.69311" lon="1.49714">
        <ele>1601</ele>
        <time>2020-05-21T14:35:06Z</time>
      </trkpt>
      <trkpt lat="42.69318" lon="1.49704">
        <ele>1604</ele>
        <time>2020-05-21T14:35:22Z</time>
      </trkpt>
      <trkpt lat="42.69317" lon="1.4969">
        <ele>1597</ele>
        <time>2020-05-21T14:36:59Z</time>
      </trkpt>
      <trkpt lat="42.69325" lon="1.49683">
        <ele>1597</ele>
        <time>2020-05-21T14:37:13Z</time>
      </trkpt>
      <trkpt lat="42.69334" lon="1.49677">
        <ele>1606</ele>
        <time>2020-05-21T14:37:27Z</time>
      </trkpt>
      <trkpt lat="42.69343" lon="1.49671">
        <ele>1607</ele>
        <time>2020-05-21T14:37:35Z</time>
      </trkpt>
      <trkpt lat="42.69353" lon="1.49665">
        <ele>1606</ele>
        <time>2020-05-21T14:37:44Z</time>
      </trkpt>
      <trkpt lat="42.6936" lon="1.49656">
        <ele>1606</ele>
        <time>2020-05-21T14:37:55Z</time>
      </trkpt>
      <trkpt lat="42.69367" lon="1.49649">
        <ele>1604</ele>
        <time>2020-05-21T14:38:04Z</time>
      </trkpt>
      <trkpt lat="42.69377" lon="1.49646">
        <ele>1610</ele>
        <time>2020-05-21T14:38:14Z</time>
      </trkpt>
      <trkpt lat="42.69386" lon="1.49642">
        <ele>1604</ele>
        <time>2020-05-21T14:38:23Z</time>
      </trkpt>
      <trkpt lat="42.69394" lon="1.49635">
        <ele>1606</ele>
        <time>2020-05-21T14:38:37Z</time>
      </trkpt>
      <trkpt lat="42.69403" lon="1.4964">
        <ele>1603</ele>
        <time>2020-05-21T14:38:59Z</time>
      </trkpt>
      <trkpt lat="42.69413" lon="1.49639">
        <ele>1606</ele>
        <time>2020-05-21T14:40:26Z</time>
      </trkpt>
      <trkpt lat="42.69422" lon="1.49641">
        <ele>1600</ele>
        <time>2020-05-21T14:40:49Z</time>
      </trkpt>
      <trkpt lat="42.69432" lon="1.49642">
        <ele>1601</ele>
        <time>2020-05-21T14:41:11Z</time>
      </trkpt>
      <trkpt lat="42.69441" lon="1.49644">
        <ele>1608</ele>
        <time>2020-05-21T14:41:32Z</time>
      </trkpt>
      <trkpt lat="42.69454" lon="1.4964">
        <ele>1593</ele>
        <time>2020-05-21T14:44:05Z</time>
      </trkpt>
      <trkpt lat="42.69464" lon="1.4964">
        <ele>1596</ele>
        <time>2020-05-21T14:44:24Z</time>
      </trkpt>
      <trkpt lat="42.69471" lon="1.49633">
        <ele>1591</ele>
        <time>2020-05-21T14:44:43Z</time>
      </trkpt>
      <trkpt lat="42.69479" lon="1.49626">
        <ele>1591</ele>
        <time>2020-05-21T14:45:01Z</time>
      </trkpt>
      <trkpt lat="42.69486" lon="1.49617">
        <ele>1591</ele>
        <time>2020-05-21T14:45:16Z</time>
      </trkpt>
      <trkpt lat="42.69494" lon="1.49611">
        <ele>1584</ele>
        <time>2020-05-21T14:45:36Z</time>
      </trkpt>
      <trkpt lat="42.69503" lon="1.49604">
        <ele>1579</ele>
        <time>2020-05-21T14:45:51Z</time>
      </trkpt>
      <trkpt lat="42.69511" lon="1.496">
        <ele>1574</ele>
        <time>2020-05-21T14:46:01Z</time>
      </trkpt>
      <trkpt lat="42.6952" lon="1.49597">
        <ele>1571</ele>
        <time>2020-05-21T14:46:18Z</time>
      </trkpt>
      <trkpt lat="42.69527" lon="1.49589">
        <ele>1574</ele>
        <time>2020-05-21T14:47:14Z</time>
      </trkpt>
      <trkpt lat="42.6954" lon="1.49594">
        <ele>1574</ele>
        <time>2020-05-21T14:47:36Z</time>
      </trkpt>
      <trkpt lat="42.6955" lon="1.49591">
        <ele>1569</ele>
        <time>2020-05-21T14:47:48Z</time>
      </trkpt>
      <trkpt lat="42.69559" lon="1.49591">
        <ele>1566</ele>
        <time>2020-05-21T14:48:01Z</time>
      </trkpt>
      <trkpt lat="42.69568" lon="1.49585">
        <ele>1572</ele>
        <time>2020-05-21T14:48:12Z</time>
      </trkpt>
      <trkpt lat="42.69577" lon="1.49582">
        <ele>1577</ele>
        <time>2020-05-21T14:48:22Z</time>
      </trkpt>
      <trkpt lat="42.69587" lon="1.49583">
        <ele>1572</ele>
        <time>2020-05-21T14:48:34Z</time>
      </trkpt>
      <trkpt lat="42.69597" lon="1.49582">
        <ele>1572</ele>
        <time>2020-05-21T14:48:46Z</time>
      </trkpt>
      <trkpt lat="42.69606" lon="1.49587">
        <ele>1571</ele>
        <time>2020-05-21T14:48:57Z</time>
      </trkpt>
      <trkpt lat="42.69616" lon="1.49586">
        <ele>1569</ele>
        <time>2020-05-21T14:49:11Z</time>
      </trkpt>
      <trkpt lat="42.69625" lon="1.49582">
        <ele>1566</ele>
        <time>2020-05-21T14:49:29Z</time>
      </trkpt>
      <trkpt lat="42.69633" lon="1.49574">
        <ele>1560</ele>
        <time>2020-05-21T14:49:47Z</time>
      </trkpt>
      <trkpt lat="42.69642" lon="1.49569">
        <ele>1562</ele>
        <time>2020-05-21T14:50:00Z</time>
      </trkpt>
      <trkpt lat="42.69652" lon="1.49562">
        <ele>1560</ele>
        <time>2020-05-21T14:50:28Z</time>
      </trkpt>
      <trkpt lat="42.69662" lon="1.49552">
        <ele>1562</ele>
        <time>2020-05-21T14:51:00Z</time>
      </trkpt>
      <trkpt lat="42.69671" lon="1.49549">
        <ele>1565</ele>
        <time>2020-05-21T14:51:12Z</time>
      </trkpt>
      <trkpt lat="42.69681" lon="1.49551">
        <ele>1558</ele>
        <time>2020-05-21T14:51:24Z</time>
      </trkpt>
      <trkpt lat="42.69691" lon="1.49551">
        <ele>1560</ele>
        <time>2020-05-21T14:51:34Z</time>
      </trkpt>
      <trkpt lat="42.69701" lon="1.49551">
        <ele>1559</ele>
        <time>2020-05-21T14:51:44Z</time>
      </trkpt>
      <trkpt lat="42.69712" lon="1.49541">
        <ele>1553</ele>
        <time>2020-05-21T14:52:05Z</time>
      </trkpt>
      <trkpt lat="42.69721" lon="1.49536">
        <ele>1553</ele>
        <time>2020-05-21T14:52:20Z</time>
      </trkpt>
      <trkpt lat="42.69731" lon="1.49541">
        <ele>1552</ele>
        <time>2020-05-21T14:53:05Z</time>
      </trkpt>
      <trkpt lat="42.6974" lon="1.49537">
        <ele>1552</ele>
        <time>2020-05-21T14:53:28Z</time>
      </trkpt>
      <trkpt lat="42.69748" lon="1.49529">
        <ele>1548</ele>
        <time>2020-05-21T14:53:47Z</time>
      </trkpt>
      <trkpt lat="42.69756" lon="1.4952">
        <ele>1542</ele>
        <time>2020-05-21T14:53:58Z</time>
      </trkpt>
      <trkpt lat="42.69765" lon="1.49516">
        <ele>1538</ele>
        <time>2020-05-21T14:55:13Z</time>
      </trkpt>
      <trkpt lat="42.69774" lon="1.49519">
        <ele>1540</ele>
        <time>2020-05-21T14:55:24Z</time>
      </trkpt>
      <trkpt lat="42.69784" lon="1.49521">
        <ele>1539</ele>
        <time>2020-05-21T14:55:36Z</time>
      </trkpt>
      <trkpt lat="42.69793" lon="1.49528">
        <ele>1541</ele>
        <time>2020-05-21T14:55:59Z</time>
      </trkpt>
      <trkpt lat="42.69803" lon="1.49526">
        <ele>1545</ele>
        <time>2020-05-21T14:56:22Z</time>
      </trkpt>
      <trkpt lat="42.6981" lon="1.49519">
        <ele>1546</ele>
        <time>2020-05-21T14:56:41Z</time>
      </trkpt>
      <trkpt lat="42.6982" lon="1.49517">
        <ele>1548</ele>
        <time>2020-05-21T14:57:01Z</time>
      </trkpt>
      <trkpt lat="42.69828" lon="1.4951">
        <ele>1546</ele>
        <time>2020-05-21T14:57:12Z</time>
      </trkpt>
      <trkpt lat="42.6984" lon="1.4952">
        <ele>1544</ele>
        <time>2020-05-21T14:58:00Z</time>
      </trkpt>
      <trkpt lat="42.69849" lon="1.49533">
        <ele>1537</ele>
        <time>2020-05-21T14:58:25Z</time>
      </trkpt>
      <trkpt lat="42.69854" lon="1.49544">
        <ele>1539</ele>
        <time>2020-05-21T14:58:43Z</time>
      </trkpt>
      <trkpt lat="42.6985" lon="1.49557">
        <ele>1542</ele>
        <time>2020-05-21T14:59:19Z</time>
      </trkpt>
      <trkpt lat="42.69858" lon="1.49565">
        <ele>1544</ele>
        <time>2020-05-21T14:59:34Z</time>
      </trkpt>
      <trkpt lat="42.69864" lon="1.49574">
        <ele>1545</ele>
        <time>2020-05-21T14:59:45Z</time>
      </trkpt>
      <trkpt lat="42.69875" lon="1.49572">
        <ele>1543</ele>
        <time>2020-05-21T14:59:56Z</time>
      </trkpt>
      <trkpt lat="42.69883" lon="1.49579">
        <ele>1545</ele>
        <time>2020-05-21T15:00:07Z</time>
      </trkpt>
      <trkpt lat="42.69889" lon="1.49589">
        <ele>1549</ele>
        <time>2020-05-21T15:00:18Z</time>
      </trkpt>
      <trkpt lat="42.69898" lon="1.49596">
        <ele>1551</ele>
        <time>2020-05-21T15:00:32Z</time>
      </trkpt>
      <trkpt lat="42.69904" lon="1.49605">
        <ele>1556</ele>
        <time>2020-05-21T15:00:55Z</time>
      </trkpt>
      <trkpt lat="42.69916" lon="1.49614">
        <ele>1556</ele>
        <time>2020-05-21T15:01:29Z</time>
      </trkpt>
      <trkpt lat="42.69924" lon="1.49622">
        <ele>1554</ele>
        <time>2020-05-21T15:01:45Z</time>
      </trkpt>
      <trkpt lat="42.69931" lon="1.49628">
        <ele>1557</ele>
        <time>2020-05-21T15:02:00Z</time>
      </trkpt>
      <trkpt lat="42.69941" lon="1.49629">
        <ele>1563</ele>
        <time>2020-05-21T15:02:14Z</time>
      </trkpt>
      <trkpt lat="42.69949" lon="1.49633">
        <ele>1568</ele>
        <time>2020-05-21T15:02:31Z</time>
      </trkpt>
      <trkpt lat="42.69956" lon="1.49641">
        <ele>1573</ele>
        <time>2020-05-21T15:02:42Z</time>
      </trkpt>
      <trkpt lat="42.69958" lon="1.49654">
        <ele>1578</ele>
        <time>2020-05-21T15:02:49Z</time>
      </trkpt>
      <trkpt lat="42.6996" lon="1.49667">
        <ele>1578</ele>
        <time>2020-05-21T15:02:59Z</time>
      </trkpt>
      <trkpt lat="42.69968" lon="1.49673">
        <ele>1577</ele>
        <time>2020-05-21T15:03:09Z</time>
      </trkpt>
      <trkpt lat="42.69978" lon="1.49677">
        <ele>1578</ele>
        <time>2020-05-21T15:05:01Z</time>
      </trkpt>
      <trkpt lat="42.69988" lon="1.49681">
        <ele>1577</ele>
        <time>2020-05-21T15:05:14Z</time>
      </trkpt>
      <trkpt lat="42.69997" lon="1.4968">
        <ele>1578</ele>
        <time>2020-05-21T15:05:26Z</time>
      </trkpt>
      <trkpt lat="42.70006" lon="1.49678">
        <ele>1574</ele>
        <time>2020-05-21T15:05:37Z</time>
      </trkpt>
      <trkpt lat="42.70015" lon="1.49674">
        <ele>1572</ele>
        <time>2020-05-21T15:05:45Z</time>
      </trkpt>
      <trkpt lat="42.70027" lon="1.49667">
        <ele>1565</ele>
        <time>2020-05-21T15:06:00Z</time>
      </trkpt>
      <trkpt lat="42.70035" lon="1.49673">
        <ele>1562</ele>
        <time>2020-05-21T15:06:16Z</time>
      </trkpt>
      <trkpt lat="42.70038" lon="1.49685">
        <ele>1561</ele>
        <time>2020-05-21T15:06:27Z</time>
      </trkpt>
      <trkpt lat="42.70046" lon="1.49694">
        <ele>1562</ele>
        <time>2020-05-21T15:06:37Z</time>
      </trkpt>
      <trkpt lat="42.70058" lon="1.49693">
        <ele>1561</ele>
        <time>2020-05-21T15:07:02Z</time>
      </trkpt>
      <trkpt lat="42.70069" lon="1.49697">
        <ele>1559</ele>
        <time>2020-05-21T15:07:11Z</time>
      </trkpt>
      <trkpt lat="42.70078" lon="1.49699">
        <ele>1559</ele>
        <time>2020-05-21T15:07:21Z</time>
      </trkpt>
      <trkpt lat="42.70087" lon="1.49703">
        <ele>1557</ele>
        <time>2020-05-21T15:07:29Z</time>
      </trkpt>
      <trkpt lat="42.70098" lon="1.49701">
        <ele>1553</ele>
        <time>2020-05-21T15:07:40Z</time>
      </trkpt>
      <trkpt lat="42.70108" lon="1.49701">
        <ele>1549</ele>
        <time>2020-05-21T15:07:50Z</time>
      </trkpt>
      <trkpt lat="42.70116" lon="1.49706">
        <ele>1549</ele>
        <time>2020-05-21T15:07:57Z</time>
      </trkpt>
      <trkpt lat="42.70125" lon="1.49711">
        <ele>1551</ele>
        <time>2020-05-21T15:08:06Z</time>
      </trkpt>
      <trkpt lat="42.70135" lon="1.49706">
        <ele>1553</ele>
        <time>2020-05-21T15:08:13Z</time>
      </trkpt>
      <trkpt lat="42.70146" lon="1.49711">
        <ele>1555</ele>
        <time>2020-05-21T15:08:21Z</time>
      </trkpt>
      <trkpt lat="42.70151" lon="1.49722">
        <ele>1551</ele>
        <time>2020-05-21T15:08:28Z</time>
      </trkpt>
      <trkpt lat="42.7016" lon="1.49728">
        <ele>1550</ele>
        <time>2020-05-21T15:08:38Z</time>
      </trkpt>
      <trkpt lat="42.70169" lon="1.49734">
        <ele>1547</ele>
        <time>2020-05-21T15:08:48Z</time>
      </trkpt>
      <trkpt lat="42.7018" lon="1.49736">
        <ele>1546</ele>
        <time>2020-05-21T15:08:59Z</time>
      </trkpt>
      <trkpt lat="42.70189" lon="1.49743">
        <ele>1547</ele>
        <time>2020-05-21T15:09:09Z</time>
      </trkpt>
      <trkpt lat="42.70198" lon="1.49746">
        <ele>1545</ele>
        <time>2020-05-21T15:09:20Z</time>
      </trkpt>
      <trkpt lat="42.70206" lon="1.49743">
        <ele>1543</ele>
        <time>2020-05-21T15:09:34Z</time>
      </trkpt>
      <trkpt lat="42.70216" lon="1.49746">
        <ele>1548</ele>
        <time>2020-05-21T15:09:58Z</time>
      </trkpt>
      <trkpt lat="42.70226" lon="1.49747">
        <ele>1544</ele>
        <time>2020-05-21T15:10:07Z</time>
      </trkpt>
      <trkpt lat="42.70235" lon="1.49755">
        <ele>1536</ele>
        <time>2020-05-21T15:10:20Z</time>
      </trkpt>
      <trkpt lat="42.70245" lon="1.49751">
        <ele>1535</ele>
        <time>2020-05-21T15:10:28Z</time>
      </trkpt>
      <trkpt lat="42.70257" lon="1.49746">
        <ele>1522</ele>
        <time>2020-05-21T15:11:19Z</time>
      </trkpt>
      <trkpt lat="42.70267" lon="1.49745">
        <ele>1513</ele>
        <time>2020-05-21T15:11:52Z</time>
      </trkpt>
      <trkpt lat="42.70278" lon="1.49751">
        <ele>1507</ele>
        <time>2020-05-21T15:12:14Z</time>
      </trkpt>
      <trkpt lat="42.70286" lon="1.49759">
        <ele>1500</ele>
        <time>2020-05-21T15:12:30Z</time>
      </trkpt>
      <trkpt lat="42.70296" lon="1.49758">
        <ele>1497</ele>
        <time>2020-05-21T15:12:41Z</time>
      </trkpt>
      <trkpt lat="42.70305" lon="1.49751">
        <ele>1492</ele>
        <time>2020-05-21T15:12:52Z</time>
      </trkpt>
      <trkpt lat="42.70315" lon="1.49752">
        <ele>1487</ele>
        <time>2020-05-21T15:13:26Z</time>
      </trkpt>
      <trkpt lat="42.70323" lon="1.49759">
        <ele>1487</ele>
        <time>2020-05-21T15:13:41Z</time>
      </trkpt>
      <trkpt lat="42.70332" lon="1.49757">
        <ele>1487</ele>
        <time>2020-05-21T15:13:52Z</time>
      </trkpt>
      <trkpt lat="42.70342" lon="1.49754">
        <ele>1487</ele>
        <time>2020-05-21T15:14:07Z</time>
      </trkpt>
      <trkpt lat="42.70355" lon="1.4975">
        <ele>1482</ele>
        <time>2020-05-21T15:14:23Z</time>
      </trkpt>
      <trkpt lat="42.70364" lon="1.49744">
        <ele>1475</ele>
        <time>2020-05-21T15:14:38Z</time>
      </trkpt>
      <trkpt lat="42.70372" lon="1.49737">
        <ele>1470</ele>
        <time>2020-05-21T15:15:19Z</time>
      </trkpt>
      <trkpt lat="42.7038" lon="1.49729">
        <ele>1473</ele>
        <time>2020-05-21T15:15:30Z</time>
      </trkpt>
      <trkpt lat="42.70387" lon="1.49719">
        <ele>1473</ele>
        <time>2020-05-21T15:15:40Z</time>
      </trkpt>
      <trkpt lat="42.70393" lon="1.49709">
        <ele>1468</ele>
        <time>2020-05-21T15:15:50Z</time>
      </trkpt>
      <trkpt lat="42.70402" lon="1.49705">
        <ele>1463</ele>
        <time>2020-05-21T15:16:06Z</time>
      </trkpt>
      <trkpt lat="42.7041" lon="1.4971">
        <ele>1461</ele>
        <time>2020-05-21T15:16:22Z</time>
      </trkpt>
      <trkpt lat="42.70423" lon="1.49708">
        <ele>1456</ele>
        <time>2020-05-21T15:16:44Z</time>
      </trkpt>
      <trkpt lat="42.70433" lon="1.49705">
        <ele>1454</ele>
        <time>2020-05-21T15:16:54Z</time>
      </trkpt>
      <trkpt lat="42.70442" lon="1.49701">
        <ele>1450</ele>
        <time>2020-05-21T15:17:05Z</time>
      </trkpt>
      <trkpt lat="42.70452" lon="1.49698">
        <ele>1445</ele>
        <time>2020-05-21T15:17:20Z</time>
      </trkpt>
      <trkpt lat="42.70461" lon="1.49696">
        <ele>1444</ele>
        <time>2020-05-21T15:17:38Z</time>
      </trkpt>
      <trkpt lat="42.7047" lon="1.49682">
        <ele>1439</ele>
        <time>2020-05-21T15:17:56Z</time>
      </trkpt>
      <trkpt lat="42.7048" lon="1.49677">
        <ele>1434</ele>
        <time>2020-05-21T15:18:10Z</time>
      </trkpt>
      <trkpt lat="42.70487" lon="1.49668">
        <ele>1431</ele>
        <time>2020-05-21T15:18:20Z</time>
      </trkpt>
      <trkpt lat="42.70494" lon="1.49657">
        <ele>1427</ele>
        <time>2020-05-21T15:18:34Z</time>
      </trkpt>
      <trkpt lat="42.70503" lon="1.49654">
        <ele>1424</ele>
        <time>2020-05-21T15:18:43Z</time>
      </trkpt>
      <trkpt lat="42.70512" lon="1.49649">
        <ele>1424</ele>
        <time>2020-05-21T15:18:53Z</time>
      </trkpt>
      <trkpt lat="42.70526" lon="1.49647">
        <ele>1420</ele>
        <time>2020-05-21T15:19:10Z</time>
      </trkpt>
      <trkpt lat="42.70535" lon="1.4964">
        <ele>1422</ele>
        <time>2020-05-21T15:19:18Z</time>
      </trkpt>
      <trkpt lat="42.70548" lon="1.49632">
        <ele>1420</ele>
        <time>2020-05-21T15:19:36Z</time>
      </trkpt>
      <trkpt lat="42.70557" lon="1.49627">
        <ele>1415</ele>
        <time>2020-05-21T15:19:46Z</time>
      </trkpt>
      <trkpt lat="42.70565" lon="1.49621">
        <ele>1414</ele>
        <time>2020-05-21T15:19:56Z</time>
      </trkpt>
      <trkpt lat="42.70575" lon="1.49617">
        <ele>1413</ele>
        <time>2020-05-21T15:20:05Z</time>
      </trkpt>
      <trkpt lat="42.70586" lon="1.49614">
        <ele>1411</ele>
        <time>2020-05-21T15:20:14Z</time>
      </trkpt>
      <trkpt lat="42.70593" lon="1.49606">
        <ele>1407</ele>
        <time>2020-05-21T15:20:22Z</time>
      </trkpt>
      <trkpt lat="42.70602" lon="1.49601">
        <ele>1406</ele>
        <time>2020-05-21T15:20:30Z</time>
      </trkpt>
      <trkpt lat="42.70612" lon="1.49606">
        <ele>1407</ele>
        <time>2020-05-21T15:21:24Z</time>
      </trkpt>
      <trkpt lat="42.70622" lon="1.49607">
        <ele>1403</ele>
        <time>2020-05-21T15:21:34Z</time>
      </trkpt>
      <trkpt lat="42.70629" lon="1.496">
        <ele>1398</ele>
        <time>2020-05-21T15:21:42Z</time>
      </trkpt>
      <trkpt lat="42.70633" lon="1.49587">
        <ele>1396</ele>
        <time>2020-05-21T15:21:53Z</time>
      </trkpt>
      <trkpt lat="42.70645" lon="1.49585">
        <ele>1392</ele>
        <time>2020-05-21T15:22:14Z</time>
      </trkpt>
      <trkpt lat="42.70657" lon="1.49577">
        <ele>1391</ele>
        <time>2020-05-21T15:22:32Z</time>
      </trkpt>
      <trkpt lat="42.70666" lon="1.49567">
        <ele>1388</ele>
        <time>2020-05-21T15:22:40Z</time>
      </trkpt>
      <trkpt lat="42.70672" lon="1.49557">
        <ele>1387</ele>
        <time>2020-05-21T15:22:50Z</time>
      </trkpt>
      <trkpt lat="42.70679" lon="1.49547">
        <ele>1386</ele>
        <time>2020-05-21T15:22:58Z</time>
      </trkpt>
      <trkpt lat="42.70688" lon="1.49541">
        <ele>1378</ele>
        <time>2020-05-21T15:23:08Z</time>
      </trkpt>
      <trkpt lat="42.70696" lon="1.49534">
        <ele>1379</ele>
        <time>2020-05-21T15:23:18Z</time>
      </trkpt>
      <trkpt lat="42.70704" lon="1.49527">
        <ele>1376</ele>
        <time>2020-05-21T15:23:29Z</time>
      </trkpt>
      <trkpt lat="42.70715" lon="1.49522">
        <ele>1379</ele>
        <time>2020-05-21T15:23:38Z</time>
      </trkpt>
      <trkpt lat="42.70722" lon="1.49514">
        <ele>1379</ele>
        <time>2020-05-21T15:23:46Z</time>
      </trkpt>
      <trkpt lat="42.7073" lon="1.49505">
        <ele>1377</ele>
        <time>2020-05-21T15:23:55Z</time>
      </trkpt>
      <trkpt lat="42.7074" lon="1.49503">
        <ele>1374</ele>
        <time>2020-05-21T15:24:03Z</time>
      </trkpt>
      <trkpt lat="42.70748" lon="1.49496">
        <ele>1367</ele>
        <time>2020-05-21T15:24:11Z</time>
      </trkpt>
      <trkpt lat="42.70756" lon="1.49489">
        <ele>1362</ele>
        <time>2020-05-21T15:24:21Z</time>
      </trkpt>
      <trkpt lat="42.70763" lon="1.4948">
        <ele>1357</ele>
        <time>2020-05-21T15:24:30Z</time>
      </trkpt>
      <trkpt lat="42.70772" lon="1.49472">
        <ele>1350</ele>
        <time>2020-05-21T15:24:39Z</time>
      </trkpt>
      <trkpt lat="42.70782" lon="1.49465">
        <ele>1344</ele>
        <time>2020-05-21T15:24:49Z</time>
      </trkpt>
      <trkpt lat="42.70791" lon="1.49461">
        <ele>1346</ele>
        <time>2020-05-21T15:24:59Z</time>
      </trkpt>
      <trkpt lat="42.70801" lon="1.49464">
        <ele>1344</ele>
        <time>2020-05-21T15:25:11Z</time>
      </trkpt>
      <trkpt lat="42.70811" lon="1.49462">
        <ele>1343</ele>
        <time>2020-05-21T15:25:21Z</time>
      </trkpt>
      <trkpt lat="42.70821" lon="1.49467">
        <ele>1342</ele>
        <time>2020-05-21T15:25:31Z</time>
      </trkpt>
      <trkpt lat="42.70831" lon="1.49467">
        <ele>1340</ele>
        <time>2020-05-21T15:25:41Z</time>
      </trkpt>
      <trkpt lat="42.7084" lon="1.49466">
        <ele>1337</ele>
        <time>2020-05-21T15:25:49Z</time>
      </trkpt>
      <trkpt lat="42.70851" lon="1.49464">
        <ele>1333</ele>
        <time>2020-05-21T15:26:00Z</time>
      </trkpt>
      <trkpt lat="42.7086" lon="1.49463">
        <ele>1331</ele>
        <time>2020-05-21T15:26:11Z</time>
      </trkpt>
      <trkpt lat="42.7087" lon="1.49469">
        <ele>1328</ele>
        <time>2020-05-21T15:26:22Z</time>
      </trkpt>
      <trkpt lat="42.70878" lon="1.49476">
        <ele>1331</ele>
        <time>2020-05-21T15:26:29Z</time>
      </trkpt>
      <trkpt lat="42.70886" lon="1.49485">
        <ele>1331</ele>
        <time>2020-05-21T15:26:38Z</time>
      </trkpt>
      <trkpt lat="42.70895" lon="1.49489">
        <ele>1328</ele>
        <time>2020-05-21T15:26:46Z</time>
      </trkpt>
      <trkpt lat="42.70904" lon="1.49483">
        <ele>1321</ele>
        <time>2020-05-21T15:26:56Z</time>
      </trkpt>
      <trkpt lat="42.70901" lon="1.4947">
        <ele>1329</ele>
        <time>2020-05-21T15:27:15Z</time>
      </trkpt>
      <trkpt lat="42.70906" lon="1.49459">
        <ele>1322</ele>
        <time>2020-05-21T15:27:43Z</time>
      </trkpt>
      <trkpt lat="42.70913" lon="1.49468">
        <ele>1321</ele>
        <time>2020-05-21T15:27:55Z</time>
      </trkpt>
      <trkpt lat="42.70926" lon="1.49472">
        <ele>1316</ele>
        <time>2020-05-21T15:28:33Z</time>
      </trkpt>
      <trkpt lat="42.70935" lon="1.49471">
        <ele>1313</ele>
        <time>2020-05-21T15:28:42Z</time>
      </trkpt>
      <trkpt lat="42.70944" lon="1.49473">
        <ele>1309</ele>
        <time>2020-05-21T15:28:49Z</time>
      </trkpt>
      <trkpt lat="42.70954" lon="1.49469">
        <ele>1310</ele>
        <time>2020-05-21T15:28:59Z</time>
      </trkpt>
      <trkpt lat="42.70962" lon="1.49462">
        <ele>1307</ele>
        <time>2020-05-21T15:29:09Z</time>
      </trkpt>
      <trkpt lat="42.7097" lon="1.49454">
        <ele>1308</ele>
        <time>2020-05-21T15:29:19Z</time>
      </trkpt>
      <trkpt lat="42.7098" lon="1.49453">
        <ele>1312</ele>
        <time>2020-05-21T15:29:43Z</time>
      </trkpt>
      <trkpt lat="42.7099" lon="1.49449">
        <ele>1324</ele>
        <time>2020-05-21T15:32:00Z</time>
      </trkpt>
      <trkpt lat="42.70998" lon="1.49442">
        <ele>1325</ele>
        <time>2020-05-21T15:32:07Z</time>
      </trkpt>
      <trkpt lat="42.71007" lon="1.49436">
        <ele>1317</ele>
        <time>2020-05-21T15:32:14Z</time>
      </trkpt>
      <trkpt lat="42.71014" lon="1.49427">
        <ele>1312</ele>
        <time>2020-05-21T15:32:25Z</time>
      </trkpt>
      <trkpt lat="42.71016" lon="1.49414">
        <ele>1312</ele>
        <time>2020-05-21T15:32:37Z</time>
      </trkpt>
      <trkpt lat="42.71024" lon="1.49408">
        <ele>1310</ele>
        <time>2020-05-21T15:32:44Z</time>
      </trkpt>
      <trkpt lat="42.71029" lon="1.49397">
        <ele>1306</ele>
        <time>2020-05-21T15:32:52Z</time>
      </trkpt>
      <trkpt lat="42.71036" lon="1.49387">
        <ele>1301</ele>
        <time>2020-05-21T15:33:03Z</time>
      </trkpt>
      <trkpt lat="42.71044" lon="1.49376">
        <ele>1299</ele>
        <time>2020-05-21T15:33:13Z</time>
      </trkpt>
      <trkpt lat="42.71051" lon="1.49368">
        <ele>1290</ele>
        <time>2020-05-21T15:33:21Z</time>
      </trkpt>
      <trkpt lat="42.71061" lon="1.49366">
        <ele>1293</ele>
        <time>2020-05-21T15:33:32Z</time>
      </trkpt>
      <trkpt lat="42.7107" lon="1.4936">
        <ele>1290</ele>
        <time>2020-05-21T15:33:42Z</time>
      </trkpt>
      <trkpt lat="42.71079" lon="1.49353">
        <ele>1285</ele>
        <time>2020-05-21T15:33:52Z</time>
      </trkpt>
      <trkpt lat="42.71088" lon="1.49349">
        <ele>1281</ele>
        <time>2020-05-21T15:34:01Z</time>
      </trkpt>
      <trkpt lat="42.71097" lon="1.49344">
        <ele>1282</ele>
        <time>2020-05-21T15:34:10Z</time>
      </trkpt>
      <trkpt lat="42.71106" lon="1.49338">
        <ele>1277</ele>
        <time>2020-05-21T15:34:30Z</time>
      </trkpt>
      <trkpt lat="42.71115" lon="1.49335">
        <ele>1278</ele>
        <time>2020-05-21T15:34:41Z</time>
      </trkpt>
      <trkpt lat="42.71123" lon="1.49326">
        <ele>1269</ele>
        <time>2020-05-21T15:34:49Z</time>
      </trkpt>
      <trkpt lat="42.71133" lon="1.49313">
        <ele>1268</ele>
        <time>2020-05-21T15:35:03Z</time>
      </trkpt>
      <trkpt lat="42.71142" lon="1.49309">
        <ele>1266</ele>
        <time>2020-05-21T15:35:16Z</time>
      </trkpt>
      <trkpt lat="42.71151" lon="1.49303">
        <ele>1267</ele>
        <time>2020-05-21T15:35:26Z</time>
      </trkpt>
      <trkpt lat="42.7116" lon="1.49295">
        <ele>1270</ele>
        <time>2020-05-21T15:35:36Z</time>
      </trkpt>
      <trkpt lat="42.71167" lon="1.49287">
        <ele>1264</ele>
        <time>2020-05-21T15:35:46Z</time>
      </trkpt>
      <trkpt lat="42.71176" lon="1.49281">
        <ele>1258</ele>
        <time>2020-05-21T15:35:56Z</time>
      </trkpt>
      <trkpt lat="42.71187" lon="1.49279">
        <ele>1251</ele>
        <time>2020-05-21T15:36:05Z</time>
      </trkpt>
      <trkpt lat="42.71196" lon="1.49272">
        <ele>1249</ele>
        <time>2020-05-21T15:36:13Z</time>
      </trkpt>
      <trkpt lat="42.71204" lon="1.49265">
        <ele>1246</ele>
        <time>2020-05-21T15:36:22Z</time>
      </trkpt>
      <trkpt lat="42.71214" lon="1.49259">
        <ele>1243</ele>
        <time>2020-05-21T15:36:31Z</time>
      </trkpt>
      <trkpt lat="42.71222" lon="1.49252">
        <ele>1243</ele>
        <time>2020-05-21T15:36:42Z</time>
      </trkpt>
      <trkpt lat="42.71231" lon="1.49244">
        <ele>1245</ele>
        <time>2020-05-21T15:36:58Z</time>
      </trkpt>
      <trkpt lat="42.7124" lon="1.49237">
        <ele>1243</ele>
        <time>2020-05-21T15:37:10Z</time>
      </trkpt>
      <trkpt lat="42.7125" lon="1.49224">
        <ele>1242</ele>
        <time>2020-05-21T15:37:36Z</time>
      </trkpt>
      <trkpt lat="42.71258" lon="1.49214">
        <ele>1239</ele>
        <time>2020-05-21T15:37:45Z</time>
      </trkpt>
      <trkpt lat="42.71266" lon="1.49204">
        <ele>1237</ele>
        <time>2020-05-21T15:37:53Z</time>
      </trkpt>
      <trkpt lat="42.71272" lon="1.49194">
        <ele>1237</ele>
        <time>2020-05-21T15:38:00Z</time>
      </trkpt>
      <trkpt lat="42.7128" lon="1.49185">
        <ele>1234</ele>
        <time>2020-05-21T15:38:07Z</time>
      </trkpt>
      <trkpt lat="42.71287" lon="1.49175">
        <ele>1234</ele>
        <time>2020-05-21T15:38:14Z</time>
      </trkpt>
      <trkpt lat="42.71295" lon="1.49165">
        <ele>1233</ele>
        <time>2020-05-21T15:38:22Z</time>
      </trkpt>
      <trkpt lat="42.71298" lon="1.49151">
        <ele>1226</ele>
        <time>2020-05-21T15:38:31Z</time>
      </trkpt>
      <trkpt lat="42.713" lon="1.49138">
        <ele>1221</ele>
        <time>2020-05-21T15:38:42Z</time>
      </trkpt>
      <trkpt lat="42.71304" lon="1.49125">
        <ele>1219</ele>
        <time>2020-05-21T15:38:52Z</time>
      </trkpt>
      <trkpt lat="42.71311" lon="1.49115">
        <ele>1221</ele>
        <time>2020-05-21T15:39:01Z</time>
      </trkpt>
      <trkpt lat="42.71315" lon="1.49101">
        <ele>1212</ele>
        <time>2020-05-21T15:39:12Z</time>
      </trkpt>
      <trkpt lat="42.7131" lon="1.49087">
        <ele>1223</ele>
        <time>2020-05-21T15:39:35Z</time>
      </trkpt>
      <trkpt lat="42.71301" lon="1.4908">
        <ele>1212</ele>
        <time>2020-05-21T15:40:52Z</time>
      </trkpt>
      <trkpt lat="42.71309" lon="1.4907">
        <ele>1214</ele>
        <time>2020-05-21T15:42:39Z</time>
      </trkpt>
      <trkpt lat="42.71313" lon="1.49059">
        <ele>1210</ele>
        <time>2020-05-21T15:43:03Z</time>
      </trkpt>
      <trkpt lat="42.71321" lon="1.49052">
        <ele>1209</ele>
        <time>2020-05-21T15:43:09Z</time>
      </trkpt>
      <trkpt lat="42.7133" lon="1.49046">
        <ele>1208</ele>
        <time>2020-05-21T15:43:17Z</time>
      </trkpt>
      <trkpt lat="42.7134" lon="1.49041">
        <ele>1209</ele>
        <time>2020-05-21T15:43:23Z</time>
      </trkpt>
      <trkpt lat="42.71351" lon="1.49037">
        <ele>1208</ele>
        <time>2020-05-21T15:43:29Z</time>
      </trkpt>
      <trkpt lat="42.7136" lon="1.49036">
        <ele>1207</ele>
        <time>2020-05-21T15:43:36Z</time>
      </trkpt>
      <trkpt lat="42.71371" lon="1.49033">
        <ele>1201</ele>
        <time>2020-05-21T15:43:44Z</time>
      </trkpt>
      <trkpt lat="42.7138" lon="1.49026">
        <ele>1201</ele>
        <time>2020-05-21T15:43:50Z</time>
      </trkpt>
      <trkpt lat="42.71389" lon="1.49021">
        <ele>1200</ele>
        <time>2020-05-21T15:43:58Z</time>
      </trkpt>
      <trkpt lat="42.71399" lon="1.49018">
        <ele>1199</ele>
        <time>2020-05-21T15:44:06Z</time>
      </trkpt>
      <trkpt lat="42.71411" lon="1.4902">
        <ele>1198</ele>
        <time>2020-05-21T15:44:14Z</time>
      </trkpt>
      <trkpt lat="42.71421" lon="1.49018">
        <ele>1197</ele>
        <time>2020-05-21T15:44:21Z</time>
      </trkpt>
      <trkpt lat="42.7143" lon="1.49014">
        <ele>1196</ele>
        <time>2020-05-21T15:44:28Z</time>
      </trkpt>
      <trkpt lat="42.71439" lon="1.49004">
        <ele>1196</ele>
        <time>2020-05-21T15:44:35Z</time>
      </trkpt>
      <trkpt lat="42.71449" lon="1.49">
        <ele>1199</ele>
        <time>2020-05-21T15:44:42Z</time>
      </trkpt>
      <trkpt lat="42.71458" lon="1.48995">
        <ele>1194</ele>
        <time>2020-05-21T15:44:50Z</time>
      </trkpt>
      <trkpt lat="42.71467" lon="1.48989">
        <ele>1196</ele>
        <time>2020-05-21T15:44:59Z</time>
      </trkpt>
      <trkpt lat="42.71477" lon="1.48983">
        <ele>1196</ele>
        <time>2020-05-21T15:45:07Z</time>
      </trkpt>
      <trkpt lat="42.71488" lon="1.4898">
        <ele>1196</ele>
        <time>2020-05-21T15:45:18Z</time>
      </trkpt>
      <trkpt lat="42.71497" lon="1.48983">
        <ele>1196</ele>
        <time>2020-05-21T15:45:25Z</time>
      </trkpt>
      <trkpt lat="42.71508" lon="1.48985">
        <ele>1195</ele>
        <time>2020-05-21T15:45:33Z</time>
      </trkpt>
      <trkpt lat="42.71515" lon="1.48993">
        <ele>1193</ele>
        <time>2020-05-21T15:45:42Z</time>
      </trkpt>
      <trkpt lat="42.71525" lon="1.48995">
        <ele>1195</ele>
        <time>2020-05-21T15:45:52Z</time>
      </trkpt>
      <trkpt lat="42.71535" lon="1.48991">
        <ele>1197</ele>
        <time>2020-05-21T15:45:59Z</time>
      </trkpt>
      <trkpt lat="42.71545" lon="1.48989">
        <ele>1197</ele>
        <time>2020-05-21T15:46:05Z</time>
      </trkpt>
      <trkpt lat="42.71555" lon="1.48987">
        <ele>1195</ele>
        <time>2020-05-21T15:46:11Z</time>
      </trkpt>
      <trkpt lat="42.71566" lon="1.48982">
        <ele>1193</ele>
        <time>2020-05-21T15:46:18Z</time>
      </trkpt>
      <trkpt lat="42.71572" lon="1.48973">
        <ele>1193</ele>
        <time>2020-05-21T15:46:24Z</time>
      </trkpt>
      <trkpt lat="42.71582" lon="1.48967">
        <ele>1187</ele>
        <time>2020-05-21T15:46:30Z</time>
      </trkpt>
      <trkpt lat="42.71589" lon="1.48956">
        <ele>1195</ele>
        <time>2020-05-21T15:46:39Z</time>
      </trkpt>
      <trkpt lat="42.71596" lon="1.48948">
        <ele>1191</ele>
        <time>2020-05-21T15:46:46Z</time>
      </trkpt>
      <trkpt lat="42.71608" lon="1.48947">
        <ele>1183</ele>
        <time>2020-05-21T15:46:52Z</time>
      </trkpt>
      <trkpt lat="42.71617" lon="1.48943">
        <ele>1184</ele>
        <time>2020-05-21T15:46:58Z</time>
      </trkpt>
      <trkpt lat="42.71626" lon="1.48936">
        <ele>1184</ele>
        <time>2020-05-21T15:47:05Z</time>
      </trkpt>
      <trkpt lat="42.71635" lon="1.48928">
        <ele>1184</ele>
        <time>2020-05-21T15:47:13Z</time>
      </trkpt>
      <trkpt lat="42.71644" lon="1.4892">
        <ele>1181</ele>
        <time>2020-05-21T15:47:21Z</time>
      </trkpt>
      <trkpt lat="42.7165" lon="1.48908">
        <ele>1176</ele>
        <time>2020-05-21T15:47:29Z</time>
      </trkpt>
      <trkpt lat="42.71658" lon="1.48901">
        <ele>1176</ele>
        <time>2020-05-21T15:47:36Z</time>
      </trkpt>
      <trkpt lat="42.71668" lon="1.48894">
        <ele>1181</ele>
        <time>2020-05-21T15:47:43Z</time>
      </trkpt>
      <trkpt lat="42.71677" lon="1.48887">
        <ele>1174</ele>
        <time>2020-05-21T15:47:50Z</time>
      </trkpt>
      <trkpt lat="42.71683" lon="1.48877">
        <ele>1174</ele>
        <time>2020-05-21T15:47:56Z</time>
      </trkpt>
      <trkpt lat="42.71692" lon="1.4887">
        <ele>1170</ele>
        <time>2020-05-21T15:48:04Z</time>
      </trkpt>
      <trkpt lat="42.71702" lon="1.48863">
        <ele>1175</ele>
        <time>2020-05-21T15:48:12Z</time>
      </trkpt>
      <trkpt lat="42.7171" lon="1.48857">
        <ele>1176</ele>
        <time>2020-05-21T15:48:20Z</time>
      </trkpt>
      <trkpt lat="42.7172" lon="1.48851">
        <ele>1177</ele>
        <time>2020-05-21T15:48:27Z</time>
      </trkpt>
      <trkpt lat="42.7173" lon="1.48846">
        <ele>1175</ele>
        <time>2020-05-21T15:48:35Z</time>
      </trkpt>
      <trkpt lat="42.71739" lon="1.48839">
        <ele>1177</ele>
        <time>2020-05-21T15:48:43Z</time>
      </trkpt>
      <trkpt lat="42.71749" lon="1.48837">
        <ele>1174</ele>
        <time>2020-05-21T15:48:51Z</time>
      </trkpt>
      <trkpt lat="42.71759" lon="1.48837">
        <ele>1172</ele>
        <time>2020-05-21T15:49:00Z</time>
      </trkpt>
      <trkpt lat="42.71769" lon="1.48836">
        <ele>1170</ele>
        <time>2020-05-21T15:49:06Z</time>
      </trkpt>
      <trkpt lat="42.71761" lon="1.4883">
        <ele>1175</ele>
        <time>2020-05-21T15:49:24Z</time>
      </trkpt>
      <trkpt lat="42.71752" lon="1.48824">
        <ele>1170</ele>
        <time>2020-05-21T15:49:32Z</time>
      </trkpt>
      <trkpt lat="42.71743" lon="1.48816">
        <ele>1171</ele>
        <time>2020-05-21T15:49:40Z</time>
      </trkpt>
      <trkpt lat="42.71733" lon="1.48808">
        <ele>1171</ele>
        <time>2020-05-21T15:49:48Z</time>
      </trkpt>
      <trkpt lat="42.71724" lon="1.48803">
        <ele>1174</ele>
        <time>2020-05-21T15:49:55Z</time>
      </trkpt>
      <trkpt lat="42.71714" lon="1.488">
        <ele>1177</ele>
        <time>2020-05-21T15:50:13Z</time>
      </trkpt>
      <trkpt lat="42.71704" lon="1.48797">
        <ele>1177</ele>
        <time>2020-05-21T15:50:20Z</time>
      </trkpt>
      <trkpt lat="42.71694" lon="1.48793">
        <ele>1180</ele>
        <time>2020-05-21T15:50:29Z</time>
      </trkpt>
    </trkseg>
  </trk>
</gpx>